<?xml version="1.0" encoding="UTF-8"?>
<gpx xmlns="http://www.topografix.com/GPX/1/1" xmlns:xsi="http://www.w3.org/2001/XMLSchema-instance" version="1.1" creator="Trace de Trail" xsi:schemaLocation="http://www.topografix.com/GPX/1/1 http://www.topografix.com/GPX/1/1/gpx.xsd">
  <metadata>
    <name>NEW GTL20 - GTLC Lux 2027 </name>
    <desc>Parcours créé sur Trace de Trail</desc>
    <link href="https://tracedetrail.fr/fr/trace/356597">
      <text>Cartographie du parcours</text>
    </link>
    <time>2026-08-24T17:44:56+00:00</time>
  </metadata>
  <wpt lat="49.93772" lon="6.20484">
    <ele>207</ele>
    <type>depart</type>
  </wpt>
  <wpt lat="49.93318" lon="6.20612">
    <ele>216</ele>
    <type>arrivee</type>
  </wpt>
  <wpt lat="49.96176" lon="6.16738">
    <ele>256</ele>
    <type>bh_ravitoc_toilettes</type>
  </wpt>
  <trk>
    <name>NEW GTL20 - GTLC Lux 2027  sur TraceDeTrail.fr</name>
    <src>Trace de Trail</src>
    <trkseg>
      <trkpt lat="49.93772" lon="6.20484">
        <ele>207</ele>
        <time>2026-08-24T17:44:56+00:00</time>
      </trkpt>
      <trkpt lat="49.93806" lon="6.20476">
        <ele>207</ele>
        <time>2026-08-24T17:44:59+00:00</time>
      </trkpt>
      <trkpt lat="49.93844" lon="6.20482">
        <ele>205</ele>
        <time>2026-08-24T17:45:02+00:00</time>
      </trkpt>
      <trkpt lat="49.93853" lon="6.20481">
        <ele>208</ele>
        <time>2026-08-24T17:45:05+00:00</time>
      </trkpt>
      <trkpt lat="49.93857" lon="6.20481">
        <ele>208</ele>
        <time>2026-08-24T17:45:08+00:00</time>
      </trkpt>
      <trkpt lat="49.93849" lon="6.20468">
        <ele>204</ele>
        <time>2026-08-24T17:45:11+00:00</time>
      </trkpt>
      <trkpt lat="49.93834" lon="6.20443">
        <ele>205</ele>
        <time>2026-08-24T17:45:14+00:00</time>
      </trkpt>
      <trkpt lat="49.93819" lon="6.20419">
        <ele>207</ele>
        <time>2026-08-24T17:45:17+00:00</time>
      </trkpt>
      <trkpt lat="49.93811" lon="6.20407">
        <ele>208</ele>
        <time>2026-08-24T17:45:20+00:00</time>
      </trkpt>
      <trkpt lat="49.9381" lon="6.20405">
        <ele>207</ele>
        <time>2026-08-24T17:45:23+00:00</time>
      </trkpt>
      <trkpt lat="49.93824" lon="6.20393">
        <ele>209</ele>
        <time>2026-08-24T17:45:26+00:00</time>
      </trkpt>
      <trkpt lat="49.9383" lon="6.20403">
        <ele>209</ele>
        <time>2026-08-24T17:45:29+00:00</time>
      </trkpt>
      <trkpt lat="49.93839" lon="6.20408">
        <ele>212</ele>
        <time>2026-08-24T17:45:32+00:00</time>
      </trkpt>
      <trkpt lat="49.9384" lon="6.20413">
        <ele>208</ele>
        <time>2026-08-24T17:45:35+00:00</time>
      </trkpt>
      <trkpt lat="49.93844" lon="6.20412">
        <ele>210</ele>
        <time>2026-08-24T17:45:38+00:00</time>
      </trkpt>
      <trkpt lat="49.93863" lon="6.2042">
        <ele>212</ele>
        <time>2026-08-24T17:45:41+00:00</time>
      </trkpt>
      <trkpt lat="49.93872" lon="6.20422">
        <ele>209</ele>
        <time>2026-08-24T17:45:44+00:00</time>
      </trkpt>
      <trkpt lat="49.93902" lon="6.20437">
        <ele>208</ele>
        <time>2026-08-24T17:45:47+00:00</time>
      </trkpt>
      <trkpt lat="49.93915" lon="6.2045">
        <ele>208</ele>
        <time>2026-08-24T17:45:50+00:00</time>
      </trkpt>
      <trkpt lat="49.93924" lon="6.20453">
        <ele>209</ele>
        <time>2026-08-24T17:45:53+00:00</time>
      </trkpt>
      <trkpt lat="49.93932" lon="6.20453">
        <ele>208</ele>
        <time>2026-08-24T17:45:56+00:00</time>
      </trkpt>
      <trkpt lat="49.9394" lon="6.20452">
        <ele>208</ele>
        <time>2026-08-24T17:45:59+00:00</time>
      </trkpt>
      <trkpt lat="49.93941" lon="6.20452">
        <ele>208</ele>
        <time>2026-08-24T17:46:02+00:00</time>
      </trkpt>
      <trkpt lat="49.93951" lon="6.20452">
        <ele>209</ele>
        <time>2026-08-24T17:46:05+00:00</time>
      </trkpt>
      <trkpt lat="49.93969" lon="6.20462">
        <ele>209</ele>
        <time>2026-08-24T17:46:08+00:00</time>
      </trkpt>
      <trkpt lat="49.93971" lon="6.20461">
        <ele>210</ele>
        <time>2026-08-24T17:46:11+00:00</time>
      </trkpt>
      <trkpt lat="49.93984" lon="6.20453">
        <ele>212</ele>
        <time>2026-08-24T17:46:14+00:00</time>
      </trkpt>
      <trkpt lat="49.93998" lon="6.20453">
        <ele>213</ele>
        <time>2026-08-24T17:46:17+00:00</time>
      </trkpt>
      <trkpt lat="49.94019" lon="6.20444">
        <ele>217</ele>
        <time>2026-08-24T17:46:20+00:00</time>
      </trkpt>
      <trkpt lat="49.94036" lon="6.20445">
        <ele>220</ele>
        <time>2026-08-24T17:46:23+00:00</time>
      </trkpt>
      <trkpt lat="49.9405" lon="6.20441">
        <ele>223</ele>
        <time>2026-08-24T17:46:26+00:00</time>
      </trkpt>
      <trkpt lat="49.94051" lon="6.20441">
        <ele>225</ele>
        <time>2026-08-24T17:46:29+00:00</time>
      </trkpt>
      <trkpt lat="49.94052" lon="6.20442">
        <ele>225</ele>
        <time>2026-08-24T17:46:32+00:00</time>
      </trkpt>
      <trkpt lat="49.94059" lon="6.20438">
        <ele>228</ele>
        <time>2026-08-24T17:46:35+00:00</time>
      </trkpt>
      <trkpt lat="49.94062" lon="6.20441">
        <ele>228</ele>
        <time>2026-08-24T17:46:38+00:00</time>
      </trkpt>
      <trkpt lat="49.94067" lon="6.20448">
        <ele>228</ele>
        <time>2026-08-24T17:46:41+00:00</time>
      </trkpt>
      <trkpt lat="49.94074" lon="6.20453">
        <ele>233</ele>
        <time>2026-08-24T17:46:44+00:00</time>
      </trkpt>
      <trkpt lat="49.94086" lon="6.20447">
        <ele>243</ele>
        <time>2026-08-24T17:46:47+00:00</time>
      </trkpt>
      <trkpt lat="49.94107" lon="6.20444">
        <ele>253</ele>
        <time>2026-08-24T17:46:50+00:00</time>
      </trkpt>
      <trkpt lat="49.94124" lon="6.20444">
        <ele>261</ele>
        <time>2026-08-24T17:46:53+00:00</time>
      </trkpt>
      <trkpt lat="49.94124" lon="6.20451">
        <ele>258</ele>
        <time>2026-08-24T17:46:56+00:00</time>
      </trkpt>
      <trkpt lat="49.94129" lon="6.20466">
        <ele>254</ele>
        <time>2026-08-24T17:46:59+00:00</time>
      </trkpt>
      <trkpt lat="49.94139" lon="6.20456">
        <ele>261</ele>
        <time>2026-08-24T17:47:02+00:00</time>
      </trkpt>
      <trkpt lat="49.94154" lon="6.20448">
        <ele>270</ele>
        <time>2026-08-24T17:47:05+00:00</time>
      </trkpt>
      <trkpt lat="49.9416" lon="6.20451">
        <ele>260</ele>
        <time>2026-08-24T17:47:08+00:00</time>
      </trkpt>
      <trkpt lat="49.94163" lon="6.20466">
        <ele>264</ele>
        <time>2026-08-24T17:47:11+00:00</time>
      </trkpt>
      <trkpt lat="49.94166" lon="6.20472">
        <ele>259</ele>
        <time>2026-08-24T17:47:14+00:00</time>
      </trkpt>
      <trkpt lat="49.94166" lon="6.20473">
        <ele>259</ele>
        <time>2026-08-24T17:47:17+00:00</time>
      </trkpt>
      <trkpt lat="49.9417" lon="6.20478">
        <ele>262</ele>
        <time>2026-08-24T17:47:20+00:00</time>
      </trkpt>
      <trkpt lat="49.94183" lon="6.20472">
        <ele>265</ele>
        <time>2026-08-24T17:47:23+00:00</time>
      </trkpt>
      <trkpt lat="49.94201" lon="6.20474">
        <ele>264</ele>
        <time>2026-08-24T17:47:26+00:00</time>
      </trkpt>
      <trkpt lat="49.94203" lon="6.20474">
        <ele>264</ele>
        <time>2026-08-24T17:47:29+00:00</time>
      </trkpt>
      <trkpt lat="49.94214" lon="6.20474">
        <ele>263</ele>
        <time>2026-08-24T17:47:32+00:00</time>
      </trkpt>
      <trkpt lat="49.94221" lon="6.20465">
        <ele>268</ele>
        <time>2026-08-24T17:47:35+00:00</time>
      </trkpt>
      <trkpt lat="49.94244" lon="6.20457">
        <ele>271</ele>
        <time>2026-08-24T17:47:38+00:00</time>
      </trkpt>
      <trkpt lat="49.94253" lon="6.20451">
        <ele>268</ele>
        <time>2026-08-24T17:47:41+00:00</time>
      </trkpt>
      <trkpt lat="49.94256" lon="6.20445">
        <ele>273</ele>
        <time>2026-08-24T17:47:44+00:00</time>
      </trkpt>
      <trkpt lat="49.94266" lon="6.20435">
        <ele>271</ele>
        <time>2026-08-24T17:47:47+00:00</time>
      </trkpt>
      <trkpt lat="49.94285" lon="6.20425">
        <ele>271</ele>
        <time>2026-08-24T17:47:50+00:00</time>
      </trkpt>
      <trkpt lat="49.94303" lon="6.20401">
        <ele>271</ele>
        <time>2026-08-24T17:47:53+00:00</time>
      </trkpt>
      <trkpt lat="49.94324" lon="6.2038">
        <ele>271</ele>
        <time>2026-08-24T17:47:56+00:00</time>
      </trkpt>
      <trkpt lat="49.94352" lon="6.20369">
        <ele>272</ele>
        <time>2026-08-24T17:47:59+00:00</time>
      </trkpt>
      <trkpt lat="49.94366" lon="6.2034">
        <ele>272</ele>
        <time>2026-08-24T17:48:02+00:00</time>
      </trkpt>
      <trkpt lat="49.94373" lon="6.20333">
        <ele>275</ele>
        <time>2026-08-24T17:48:05+00:00</time>
      </trkpt>
      <trkpt lat="49.94382" lon="6.20331">
        <ele>272</ele>
        <time>2026-08-24T17:48:08+00:00</time>
      </trkpt>
      <trkpt lat="49.94388" lon="6.20348">
        <ele>269</ele>
        <time>2026-08-24T17:48:11+00:00</time>
      </trkpt>
      <trkpt lat="49.94389" lon="6.20351">
        <ele>267</ele>
        <time>2026-08-24T17:48:14+00:00</time>
      </trkpt>
      <trkpt lat="49.94401" lon="6.20369">
        <ele>262</ele>
        <time>2026-08-24T17:48:17+00:00</time>
      </trkpt>
      <trkpt lat="49.94421" lon="6.20365">
        <ele>258</ele>
        <time>2026-08-24T17:48:20+00:00</time>
      </trkpt>
      <trkpt lat="49.94428" lon="6.20367">
        <ele>258</ele>
        <time>2026-08-24T17:48:23+00:00</time>
      </trkpt>
      <trkpt lat="49.94442" lon="6.20358">
        <ele>259</ele>
        <time>2026-08-24T17:48:26+00:00</time>
      </trkpt>
      <trkpt lat="49.94443" lon="6.20356">
        <ele>255</ele>
        <time>2026-08-24T17:48:29+00:00</time>
      </trkpt>
      <trkpt lat="49.94445" lon="6.20353">
        <ele>255</ele>
        <time>2026-08-24T17:48:32+00:00</time>
      </trkpt>
      <trkpt lat="49.94445" lon="6.20351">
        <ele>255</ele>
        <time>2026-08-24T17:48:35+00:00</time>
      </trkpt>
      <trkpt lat="49.94453" lon="6.20339">
        <ele>259</ele>
        <time>2026-08-24T17:48:38+00:00</time>
      </trkpt>
      <trkpt lat="49.94464" lon="6.20315">
        <ele>260</ele>
        <time>2026-08-24T17:48:41+00:00</time>
      </trkpt>
      <trkpt lat="49.94471" lon="6.2029">
        <ele>260</ele>
        <time>2026-08-24T17:48:44+00:00</time>
      </trkpt>
      <trkpt lat="49.9447" lon="6.20286">
        <ele>267</ele>
        <time>2026-08-24T17:48:47+00:00</time>
      </trkpt>
      <trkpt lat="49.94478" lon="6.2024">
        <ele>262</ele>
        <time>2026-08-24T17:48:50+00:00</time>
      </trkpt>
      <trkpt lat="49.94481" lon="6.20234">
        <ele>263</ele>
        <time>2026-08-24T17:48:53+00:00</time>
      </trkpt>
      <trkpt lat="49.9448" lon="6.20222">
        <ele>271</ele>
        <time>2026-08-24T17:48:56+00:00</time>
      </trkpt>
      <trkpt lat="49.94482" lon="6.20181">
        <ele>265</ele>
        <time>2026-08-24T17:48:59+00:00</time>
      </trkpt>
      <trkpt lat="49.94479" lon="6.20166">
        <ele>277</ele>
        <time>2026-08-24T17:49:02+00:00</time>
      </trkpt>
      <trkpt lat="49.94481" lon="6.20139">
        <ele>281</ele>
        <time>2026-08-24T17:49:05+00:00</time>
      </trkpt>
      <trkpt lat="49.9449" lon="6.20107">
        <ele>286</ele>
        <time>2026-08-24T17:49:08+00:00</time>
      </trkpt>
      <trkpt lat="49.9449" lon="6.20098">
        <ele>287</ele>
        <time>2026-08-24T17:49:11+00:00</time>
      </trkpt>
      <trkpt lat="49.94493" lon="6.20096">
        <ele>282</ele>
        <time>2026-08-24T17:49:14+00:00</time>
      </trkpt>
      <trkpt lat="49.9449" lon="6.2006">
        <ele>293</ele>
        <time>2026-08-24T17:49:17+00:00</time>
      </trkpt>
      <trkpt lat="49.94493" lon="6.20048">
        <ele>290</ele>
        <time>2026-08-24T17:49:20+00:00</time>
      </trkpt>
      <trkpt lat="49.94495" lon="6.20045">
        <ele>290</ele>
        <time>2026-08-24T17:49:23+00:00</time>
      </trkpt>
      <trkpt lat="49.94492" lon="6.20001">
        <ele>295</ele>
        <time>2026-08-24T17:49:26+00:00</time>
      </trkpt>
      <trkpt lat="49.94494" lon="6.19995">
        <ele>297</ele>
        <time>2026-08-24T17:49:29+00:00</time>
      </trkpt>
      <trkpt lat="49.94494" lon="6.19966">
        <ele>300</ele>
        <time>2026-08-24T17:49:32+00:00</time>
      </trkpt>
      <trkpt lat="49.94496" lon="6.19957">
        <ele>301</ele>
        <time>2026-08-24T17:49:35+00:00</time>
      </trkpt>
      <trkpt lat="49.94495" lon="6.19942">
        <ele>303</ele>
        <time>2026-08-24T17:49:38+00:00</time>
      </trkpt>
      <trkpt lat="49.94496" lon="6.199">
        <ele>302</ele>
        <time>2026-08-24T17:49:41+00:00</time>
      </trkpt>
      <trkpt lat="49.94498" lon="6.19895">
        <ele>302</ele>
        <time>2026-08-24T17:49:44+00:00</time>
      </trkpt>
      <trkpt lat="49.94498" lon="6.1987">
        <ele>302</ele>
        <time>2026-08-24T17:49:47+00:00</time>
      </trkpt>
      <trkpt lat="49.94499" lon="6.19864">
        <ele>303</ele>
        <time>2026-08-24T17:49:50+00:00</time>
      </trkpt>
      <trkpt lat="49.94498" lon="6.19857">
        <ele>304</ele>
        <time>2026-08-24T17:49:53+00:00</time>
      </trkpt>
      <trkpt lat="49.945" lon="6.19852">
        <ele>304</ele>
        <time>2026-08-24T17:49:56+00:00</time>
      </trkpt>
      <trkpt lat="49.94505" lon="6.19849">
        <ele>302</ele>
        <time>2026-08-24T17:49:59+00:00</time>
      </trkpt>
      <trkpt lat="49.94506" lon="6.19843">
        <ele>302</ele>
        <time>2026-08-24T17:50:02+00:00</time>
      </trkpt>
      <trkpt lat="49.94511" lon="6.19827">
        <ele>301</ele>
        <time>2026-08-24T17:50:05+00:00</time>
      </trkpt>
      <trkpt lat="49.94512" lon="6.19822">
        <ele>301</ele>
        <time>2026-08-24T17:50:08+00:00</time>
      </trkpt>
      <trkpt lat="49.94517" lon="6.19808">
        <ele>303</ele>
        <time>2026-08-24T17:50:11+00:00</time>
      </trkpt>
      <trkpt lat="49.94521" lon="6.19807">
        <ele>299</ele>
        <time>2026-08-24T17:50:14+00:00</time>
      </trkpt>
      <trkpt lat="49.94523" lon="6.19803">
        <ele>302</ele>
        <time>2026-08-24T17:50:17+00:00</time>
      </trkpt>
      <trkpt lat="49.94529" lon="6.19775">
        <ele>296</ele>
        <time>2026-08-24T17:50:20+00:00</time>
      </trkpt>
      <trkpt lat="49.94553" lon="6.19749">
        <ele>290</ele>
        <time>2026-08-24T17:50:23+00:00</time>
      </trkpt>
      <trkpt lat="49.94561" lon="6.19744">
        <ele>284</ele>
        <time>2026-08-24T17:50:26+00:00</time>
      </trkpt>
      <trkpt lat="49.94567" lon="6.19737">
        <ele>284</ele>
        <time>2026-08-24T17:50:29+00:00</time>
      </trkpt>
      <trkpt lat="49.9457" lon="6.19726">
        <ele>285</ele>
        <time>2026-08-24T17:50:32+00:00</time>
      </trkpt>
      <trkpt lat="49.9458" lon="6.19715">
        <ele>280</ele>
        <time>2026-08-24T17:50:35+00:00</time>
      </trkpt>
      <trkpt lat="49.94586" lon="6.19704">
        <ele>275</ele>
        <time>2026-08-24T17:50:38+00:00</time>
      </trkpt>
      <trkpt lat="49.9459" lon="6.19697">
        <ele>275</ele>
        <time>2026-08-24T17:50:41+00:00</time>
      </trkpt>
      <trkpt lat="49.94592" lon="6.19691">
        <ele>271</ele>
        <time>2026-08-24T17:50:44+00:00</time>
      </trkpt>
      <trkpt lat="49.94592" lon="6.19689">
        <ele>271</ele>
        <time>2026-08-24T17:50:47+00:00</time>
      </trkpt>
      <trkpt lat="49.94589" lon="6.19692">
        <ele>275</ele>
        <time>2026-08-24T17:50:50+00:00</time>
      </trkpt>
      <trkpt lat="49.94588" lon="6.19691">
        <ele>275</ele>
        <time>2026-08-24T17:50:53+00:00</time>
      </trkpt>
      <trkpt lat="49.94591" lon="6.1968">
        <ele>273</ele>
        <time>2026-08-24T17:50:56+00:00</time>
      </trkpt>
      <trkpt lat="49.94591" lon="6.19674">
        <ele>270</ele>
        <time>2026-08-24T17:50:59+00:00</time>
      </trkpt>
      <trkpt lat="49.94591" lon="6.1967">
        <ele>268</ele>
        <time>2026-08-24T17:51:02+00:00</time>
      </trkpt>
      <trkpt lat="49.94588" lon="6.19647">
        <ele>271</ele>
        <time>2026-08-24T17:51:05+00:00</time>
      </trkpt>
      <trkpt lat="49.9458" lon="6.19618">
        <ele>271</ele>
        <time>2026-08-24T17:51:08+00:00</time>
      </trkpt>
      <trkpt lat="49.9457" lon="6.19594">
        <ele>266</ele>
        <time>2026-08-24T17:51:11+00:00</time>
      </trkpt>
      <trkpt lat="49.94547" lon="6.19548">
        <ele>262</ele>
        <time>2026-08-24T17:51:14+00:00</time>
      </trkpt>
      <trkpt lat="49.94525" lon="6.19517">
        <ele>263</ele>
        <time>2026-08-24T17:51:17+00:00</time>
      </trkpt>
      <trkpt lat="49.94508" lon="6.19493">
        <ele>265</ele>
        <time>2026-08-24T17:51:20+00:00</time>
      </trkpt>
      <trkpt lat="49.9449" lon="6.19467">
        <ele>263</ele>
        <time>2026-08-24T17:51:23+00:00</time>
      </trkpt>
      <trkpt lat="49.94474" lon="6.19439">
        <ele>265</ele>
        <time>2026-08-24T17:51:26+00:00</time>
      </trkpt>
      <trkpt lat="49.94453" lon="6.19403">
        <ele>267</ele>
        <time>2026-08-24T17:51:29+00:00</time>
      </trkpt>
      <trkpt lat="49.94461" lon="6.19438">
        <ele>275</ele>
        <time>2026-08-24T17:51:32+00:00</time>
      </trkpt>
      <trkpt lat="49.9447" lon="6.19482">
        <ele>280</ele>
        <time>2026-08-24T17:51:35+00:00</time>
      </trkpt>
      <trkpt lat="49.94478" lon="6.19506">
        <ele>286</ele>
        <time>2026-08-24T17:51:38+00:00</time>
      </trkpt>
      <trkpt lat="49.94483" lon="6.19527">
        <ele>290</ele>
        <time>2026-08-24T17:51:41+00:00</time>
      </trkpt>
      <trkpt lat="49.94493" lon="6.1955">
        <ele>297</ele>
        <time>2026-08-24T17:51:44+00:00</time>
      </trkpt>
      <trkpt lat="49.94507" lon="6.1958">
        <ele>298</ele>
        <time>2026-08-24T17:51:47+00:00</time>
      </trkpt>
      <trkpt lat="49.94509" lon="6.19589">
        <ele>302</ele>
        <time>2026-08-24T17:51:50+00:00</time>
      </trkpt>
      <trkpt lat="49.94512" lon="6.19602">
        <ele>301</ele>
        <time>2026-08-24T17:51:53+00:00</time>
      </trkpt>
      <trkpt lat="49.94521" lon="6.19643">
        <ele>308</ele>
        <time>2026-08-24T17:51:56+00:00</time>
      </trkpt>
      <trkpt lat="49.94523" lon="6.19661">
        <ele>310</ele>
        <time>2026-08-24T17:51:59+00:00</time>
      </trkpt>
      <trkpt lat="49.94522" lon="6.19698">
        <ele>311</ele>
        <time>2026-08-24T17:52:02+00:00</time>
      </trkpt>
      <trkpt lat="49.9452" lon="6.19705">
        <ele>318</ele>
        <time>2026-08-24T17:52:05+00:00</time>
      </trkpt>
      <trkpt lat="49.94509" lon="6.19716">
        <ele>324</ele>
        <time>2026-08-24T17:52:08+00:00</time>
      </trkpt>
      <trkpt lat="49.94506" lon="6.19718">
        <ele>324</ele>
        <time>2026-08-24T17:52:11+00:00</time>
      </trkpt>
      <trkpt lat="49.94505" lon="6.19723">
        <ele>319</ele>
        <time>2026-08-24T17:52:14+00:00</time>
      </trkpt>
      <trkpt lat="49.94495" lon="6.19729">
        <ele>324</ele>
        <time>2026-08-24T17:52:17+00:00</time>
      </trkpt>
      <trkpt lat="49.94485" lon="6.19739">
        <ele>327</ele>
        <time>2026-08-24T17:52:20+00:00</time>
      </trkpt>
      <trkpt lat="49.9448" lon="6.1975">
        <ele>334</ele>
        <time>2026-08-24T17:52:23+00:00</time>
      </trkpt>
      <trkpt lat="49.94478" lon="6.1976">
        <ele>331</ele>
        <time>2026-08-24T17:52:26+00:00</time>
      </trkpt>
      <trkpt lat="49.94475" lon="6.19757">
        <ele>331</ele>
        <time>2026-08-24T17:52:29+00:00</time>
      </trkpt>
      <trkpt lat="49.94474" lon="6.19754">
        <ele>331</ele>
        <time>2026-08-24T17:52:32+00:00</time>
      </trkpt>
      <trkpt lat="49.94476" lon="6.19736">
        <ele>337</ele>
        <time>2026-08-24T17:52:35+00:00</time>
      </trkpt>
      <trkpt lat="49.94473" lon="6.19737">
        <ele>337</ele>
        <time>2026-08-24T17:52:38+00:00</time>
      </trkpt>
      <trkpt lat="49.94466" lon="6.1975">
        <ele>343</ele>
        <time>2026-08-24T17:52:41+00:00</time>
      </trkpt>
      <trkpt lat="49.94465" lon="6.19747">
        <ele>343</ele>
        <time>2026-08-24T17:52:44+00:00</time>
      </trkpt>
      <trkpt lat="49.94467" lon="6.19738">
        <ele>346</ele>
        <time>2026-08-24T17:52:47+00:00</time>
      </trkpt>
      <trkpt lat="49.94465" lon="6.19742">
        <ele>343</ele>
        <time>2026-08-24T17:52:50+00:00</time>
      </trkpt>
      <trkpt lat="49.94464" lon="6.19742">
        <ele>343</ele>
        <time>2026-08-24T17:52:53+00:00</time>
      </trkpt>
      <trkpt lat="49.94463" lon="6.1974">
        <ele>346</ele>
        <time>2026-08-24T17:52:56+00:00</time>
      </trkpt>
      <trkpt lat="49.94465" lon="6.19733">
        <ele>346</ele>
        <time>2026-08-24T17:52:59+00:00</time>
      </trkpt>
      <trkpt lat="49.94464" lon="6.1973">
        <ele>349</ele>
        <time>2026-08-24T17:53:02+00:00</time>
      </trkpt>
      <trkpt lat="49.94468" lon="6.19707">
        <ele>354</ele>
        <time>2026-08-24T17:53:05+00:00</time>
      </trkpt>
      <trkpt lat="49.94466" lon="6.19706">
        <ele>354</ele>
        <time>2026-08-24T17:53:08+00:00</time>
      </trkpt>
      <trkpt lat="49.94457" lon="6.19718">
        <ele>359</ele>
        <time>2026-08-24T17:53:11+00:00</time>
      </trkpt>
      <trkpt lat="49.9446" lon="6.19695">
        <ele>361</ele>
        <time>2026-08-24T17:53:14+00:00</time>
      </trkpt>
      <trkpt lat="49.9445" lon="6.19706">
        <ele>366</ele>
        <time>2026-08-24T17:53:17+00:00</time>
      </trkpt>
      <trkpt lat="49.9444" lon="6.19729">
        <ele>365</ele>
        <time>2026-08-24T17:53:20+00:00</time>
      </trkpt>
      <trkpt lat="49.94439" lon="6.19698">
        <ele>370</ele>
        <time>2026-08-24T17:53:23+00:00</time>
      </trkpt>
      <trkpt lat="49.9444" lon="6.1969">
        <ele>368</ele>
        <time>2026-08-24T17:53:26+00:00</time>
      </trkpt>
      <trkpt lat="49.94437" lon="6.19694">
        <ele>370</ele>
        <time>2026-08-24T17:53:29+00:00</time>
      </trkpt>
      <trkpt lat="49.94427" lon="6.19723">
        <ele>372</ele>
        <time>2026-08-24T17:53:32+00:00</time>
      </trkpt>
      <trkpt lat="49.94425" lon="6.1971">
        <ele>376</ele>
        <time>2026-08-24T17:53:35+00:00</time>
      </trkpt>
      <trkpt lat="49.94426" lon="6.19701">
        <ele>376</ele>
        <time>2026-08-24T17:53:38+00:00</time>
      </trkpt>
      <trkpt lat="49.94425" lon="6.19698">
        <ele>374</ele>
        <time>2026-08-24T17:53:41+00:00</time>
      </trkpt>
      <trkpt lat="49.94424" lon="6.19698">
        <ele>374</ele>
        <time>2026-08-24T17:53:44+00:00</time>
      </trkpt>
      <trkpt lat="49.94424" lon="6.19701">
        <ele>376</ele>
        <time>2026-08-24T17:53:47+00:00</time>
      </trkpt>
      <trkpt lat="49.94415" lon="6.19694">
        <ele>378</ele>
        <time>2026-08-24T17:53:50+00:00</time>
      </trkpt>
      <trkpt lat="49.94416" lon="6.19708">
        <ele>381</ele>
        <time>2026-08-24T17:53:53+00:00</time>
      </trkpt>
      <trkpt lat="49.94413" lon="6.19705">
        <ele>381</ele>
        <time>2026-08-24T17:53:56+00:00</time>
      </trkpt>
      <trkpt lat="49.94413" lon="6.19705">
        <ele>381</ele>
        <time>2026-08-24T17:53:59+00:00</time>
      </trkpt>
      <trkpt lat="49.94411" lon="6.19704">
        <ele>381</ele>
        <time>2026-08-24T17:54:02+00:00</time>
      </trkpt>
      <trkpt lat="49.9441" lon="6.19706">
        <ele>384</ele>
        <time>2026-08-24T17:54:05+00:00</time>
      </trkpt>
      <trkpt lat="49.94397" lon="6.19687">
        <ele>383</ele>
        <time>2026-08-24T17:54:08+00:00</time>
      </trkpt>
      <trkpt lat="49.94394" lon="6.19678">
        <ele>383</ele>
        <time>2026-08-24T17:54:11+00:00</time>
      </trkpt>
      <trkpt lat="49.94381" lon="6.19662">
        <ele>387</ele>
        <time>2026-08-24T17:54:14+00:00</time>
      </trkpt>
      <trkpt lat="49.9436" lon="6.19615">
        <ele>388</ele>
        <time>2026-08-24T17:54:17+00:00</time>
      </trkpt>
      <trkpt lat="49.94345" lon="6.19592">
        <ele>388</ele>
        <time>2026-08-24T17:54:20+00:00</time>
      </trkpt>
      <trkpt lat="49.94329" lon="6.19575">
        <ele>393</ele>
        <time>2026-08-24T17:54:23+00:00</time>
      </trkpt>
      <trkpt lat="49.94311" lon="6.19549">
        <ele>394</ele>
        <time>2026-08-24T17:54:26+00:00</time>
      </trkpt>
      <trkpt lat="49.94298" lon="6.1954">
        <ele>401</ele>
        <time>2026-08-24T17:54:29+00:00</time>
      </trkpt>
      <trkpt lat="49.94291" lon="6.19532">
        <ele>401</ele>
        <time>2026-08-24T17:54:32+00:00</time>
      </trkpt>
      <trkpt lat="49.94273" lon="6.19501">
        <ele>401</ele>
        <time>2026-08-24T17:54:35+00:00</time>
      </trkpt>
      <trkpt lat="49.94256" lon="6.19469">
        <ele>392</ele>
        <time>2026-08-24T17:54:38+00:00</time>
      </trkpt>
      <trkpt lat="49.94227" lon="6.19434">
        <ele>392</ele>
        <time>2026-08-24T17:54:41+00:00</time>
      </trkpt>
      <trkpt lat="49.94206" lon="6.1941">
        <ele>392</ele>
        <time>2026-08-24T17:54:44+00:00</time>
      </trkpt>
      <trkpt lat="49.94174" lon="6.19373">
        <ele>393</ele>
        <time>2026-08-24T17:54:47+00:00</time>
      </trkpt>
      <trkpt lat="49.94167" lon="6.19366">
        <ele>392</ele>
        <time>2026-08-24T17:54:50+00:00</time>
      </trkpt>
      <trkpt lat="49.94139" lon="6.19346">
        <ele>401</ele>
        <time>2026-08-24T17:54:53+00:00</time>
      </trkpt>
      <trkpt lat="49.94117" lon="6.19326">
        <ele>405</ele>
        <time>2026-08-24T17:54:56+00:00</time>
      </trkpt>
      <trkpt lat="49.94086" lon="6.19297">
        <ele>409</ele>
        <time>2026-08-24T17:54:59+00:00</time>
      </trkpt>
      <trkpt lat="49.94065" lon="6.19269">
        <ele>410</ele>
        <time>2026-08-24T17:55:02+00:00</time>
      </trkpt>
      <trkpt lat="49.94064" lon="6.19262">
        <ele>417</ele>
        <time>2026-08-24T17:55:05+00:00</time>
      </trkpt>
      <trkpt lat="49.94065" lon="6.19255">
        <ele>418</ele>
        <time>2026-08-24T17:55:08+00:00</time>
      </trkpt>
      <trkpt lat="49.9407" lon="6.19226">
        <ele>412</ele>
        <time>2026-08-24T17:55:11+00:00</time>
      </trkpt>
      <trkpt lat="49.94077" lon="6.19193">
        <ele>412</ele>
        <time>2026-08-24T17:55:14+00:00</time>
      </trkpt>
      <trkpt lat="49.94086" lon="6.19169">
        <ele>408</ele>
        <time>2026-08-24T17:55:17+00:00</time>
      </trkpt>
      <trkpt lat="49.94096" lon="6.19149">
        <ele>404</ele>
        <time>2026-08-24T17:55:20+00:00</time>
      </trkpt>
      <trkpt lat="49.94098" lon="6.1914">
        <ele>407</ele>
        <time>2026-08-24T17:55:23+00:00</time>
      </trkpt>
      <trkpt lat="49.94098" lon="6.19121">
        <ele>406</ele>
        <time>2026-08-24T17:55:26+00:00</time>
      </trkpt>
      <trkpt lat="49.9409" lon="6.19085">
        <ele>407</ele>
        <time>2026-08-24T17:55:29+00:00</time>
      </trkpt>
      <trkpt lat="49.94078" lon="6.19047">
        <ele>406</ele>
        <time>2026-08-24T17:55:32+00:00</time>
      </trkpt>
      <trkpt lat="49.9407" lon="6.19011">
        <ele>401</ele>
        <time>2026-08-24T17:55:35+00:00</time>
      </trkpt>
      <trkpt lat="49.9406" lon="6.18965">
        <ele>395</ele>
        <time>2026-08-24T17:55:38+00:00</time>
      </trkpt>
      <trkpt lat="49.94044" lon="6.18931">
        <ele>396</ele>
        <time>2026-08-24T17:55:41+00:00</time>
      </trkpt>
      <trkpt lat="49.94037" lon="6.18919">
        <ele>398</ele>
        <time>2026-08-24T17:55:44+00:00</time>
      </trkpt>
      <trkpt lat="49.94036" lon="6.18913">
        <ele>398</ele>
        <time>2026-08-24T17:55:47+00:00</time>
      </trkpt>
      <trkpt lat="49.94038" lon="6.18896">
        <ele>394</ele>
        <time>2026-08-24T17:55:50+00:00</time>
      </trkpt>
      <trkpt lat="49.94038" lon="6.18884">
        <ele>396</ele>
        <time>2026-08-24T17:55:53+00:00</time>
      </trkpt>
      <trkpt lat="49.94032" lon="6.18852">
        <ele>394</ele>
        <time>2026-08-24T17:55:56+00:00</time>
      </trkpt>
      <trkpt lat="49.94024" lon="6.1881">
        <ele>394</ele>
        <time>2026-08-24T17:55:59+00:00</time>
      </trkpt>
      <trkpt lat="49.94014" lon="6.1877">
        <ele>398</ele>
        <time>2026-08-24T17:56:02+00:00</time>
      </trkpt>
      <trkpt lat="49.93996" lon="6.18698">
        <ele>422</ele>
        <time>2026-08-24T17:56:05+00:00</time>
      </trkpt>
      <trkpt lat="49.93988" lon="6.18653">
        <ele>429</ele>
        <time>2026-08-24T17:56:08+00:00</time>
      </trkpt>
      <trkpt lat="49.93983" lon="6.18616">
        <ele>429</ele>
        <time>2026-08-24T17:56:11+00:00</time>
      </trkpt>
      <trkpt lat="49.93982" lon="6.18581">
        <ele>429</ele>
        <time>2026-08-24T17:56:14+00:00</time>
      </trkpt>
      <trkpt lat="49.93982" lon="6.18551">
        <ele>429</ele>
        <time>2026-08-24T17:56:17+00:00</time>
      </trkpt>
      <trkpt lat="49.93986" lon="6.18524">
        <ele>434</ele>
        <time>2026-08-24T17:56:20+00:00</time>
      </trkpt>
      <trkpt lat="49.93998" lon="6.18486">
        <ele>440</ele>
        <time>2026-08-24T17:56:23+00:00</time>
      </trkpt>
      <trkpt lat="49.9402" lon="6.1842">
        <ele>441</ele>
        <time>2026-08-24T17:56:26+00:00</time>
      </trkpt>
      <trkpt lat="49.94033" lon="6.18387">
        <ele>440</ele>
        <time>2026-08-24T17:56:29+00:00</time>
      </trkpt>
      <trkpt lat="49.94043" lon="6.18376">
        <ele>443</ele>
        <time>2026-08-24T17:56:32+00:00</time>
      </trkpt>
      <trkpt lat="49.9405" lon="6.18389">
        <ele>439</ele>
        <time>2026-08-24T17:56:35+00:00</time>
      </trkpt>
      <trkpt lat="49.94051" lon="6.184">
        <ele>434</ele>
        <time>2026-08-24T17:56:38+00:00</time>
      </trkpt>
      <trkpt lat="49.94047" lon="6.18449">
        <ele>429</ele>
        <time>2026-08-24T17:56:41+00:00</time>
      </trkpt>
      <trkpt lat="49.94046" lon="6.18484">
        <ele>422</ele>
        <time>2026-08-24T17:56:44+00:00</time>
      </trkpt>
      <trkpt lat="49.94046" lon="6.18522">
        <ele>404</ele>
        <time>2026-08-24T17:56:47+00:00</time>
      </trkpt>
      <trkpt lat="49.94048" lon="6.18566">
        <ele>402</ele>
        <time>2026-08-24T17:56:50+00:00</time>
      </trkpt>
      <trkpt lat="49.94053" lon="6.18652">
        <ele>372</ele>
        <time>2026-08-24T17:56:53+00:00</time>
      </trkpt>
      <trkpt lat="49.94061" lon="6.1869">
        <ele>370</ele>
        <time>2026-08-24T17:56:56+00:00</time>
      </trkpt>
      <trkpt lat="49.94072" lon="6.18721">
        <ele>361</ele>
        <time>2026-08-24T17:56:59+00:00</time>
      </trkpt>
      <trkpt lat="49.94085" lon="6.18753">
        <ele>357</ele>
        <time>2026-08-24T17:57:02+00:00</time>
      </trkpt>
      <trkpt lat="49.94103" lon="6.18794">
        <ele>349</ele>
        <time>2026-08-24T17:57:05+00:00</time>
      </trkpt>
      <trkpt lat="49.94115" lon="6.18827">
        <ele>347</ele>
        <time>2026-08-24T17:57:08+00:00</time>
      </trkpt>
      <trkpt lat="49.94128" lon="6.18861">
        <ele>347</ele>
        <time>2026-08-24T17:57:11+00:00</time>
      </trkpt>
      <trkpt lat="49.94141" lon="6.18889">
        <ele>347</ele>
        <time>2026-08-24T17:57:14+00:00</time>
      </trkpt>
      <trkpt lat="49.94157" lon="6.18936">
        <ele>345</ele>
        <time>2026-08-24T17:57:17+00:00</time>
      </trkpt>
      <trkpt lat="49.94175" lon="6.18981">
        <ele>344</ele>
        <time>2026-08-24T17:57:20+00:00</time>
      </trkpt>
      <trkpt lat="49.94189" lon="6.19023">
        <ele>342</ele>
        <time>2026-08-24T17:57:23+00:00</time>
      </trkpt>
      <trkpt lat="49.94203" lon="6.19055">
        <ele>329</ele>
        <time>2026-08-24T17:57:26+00:00</time>
      </trkpt>
      <trkpt lat="49.9422" lon="6.19107">
        <ele>325</ele>
        <time>2026-08-24T17:57:29+00:00</time>
      </trkpt>
      <trkpt lat="49.94232" lon="6.19129">
        <ele>321</ele>
        <time>2026-08-24T17:57:32+00:00</time>
      </trkpt>
      <trkpt lat="49.9425" lon="6.19179">
        <ele>313</ele>
        <time>2026-08-24T17:57:35+00:00</time>
      </trkpt>
      <trkpt lat="49.94265" lon="6.19225">
        <ele>306</ele>
        <time>2026-08-24T17:57:38+00:00</time>
      </trkpt>
      <trkpt lat="49.94271" lon="6.19235">
        <ele>303</ele>
        <time>2026-08-24T17:57:41+00:00</time>
      </trkpt>
      <trkpt lat="49.94277" lon="6.19244">
        <ele>301</ele>
        <time>2026-08-24T17:57:44+00:00</time>
      </trkpt>
      <trkpt lat="49.94293" lon="6.1926">
        <ele>301</ele>
        <time>2026-08-24T17:57:47+00:00</time>
      </trkpt>
      <trkpt lat="49.94313" lon="6.19269">
        <ele>300</ele>
        <time>2026-08-24T17:57:50+00:00</time>
      </trkpt>
      <trkpt lat="49.94332" lon="6.19276">
        <ele>294</ele>
        <time>2026-08-24T17:57:53+00:00</time>
      </trkpt>
      <trkpt lat="49.94338" lon="6.19276">
        <ele>294</ele>
        <time>2026-08-24T17:57:56+00:00</time>
      </trkpt>
      <trkpt lat="49.9436" lon="6.19287">
        <ele>288</ele>
        <time>2026-08-24T17:57:59+00:00</time>
      </trkpt>
      <trkpt lat="49.94393" lon="6.19304">
        <ele>284</ele>
        <time>2026-08-24T17:58:02+00:00</time>
      </trkpt>
      <trkpt lat="49.94403" lon="6.19312">
        <ele>279</ele>
        <time>2026-08-24T17:58:05+00:00</time>
      </trkpt>
      <trkpt lat="49.94405" lon="6.1931">
        <ele>280</ele>
        <time>2026-08-24T17:58:08+00:00</time>
      </trkpt>
      <trkpt lat="49.94413" lon="6.19313">
        <ele>283</ele>
        <time>2026-08-24T17:58:11+00:00</time>
      </trkpt>
      <trkpt lat="49.94444" lon="6.19308">
        <ele>283</ele>
        <time>2026-08-24T17:58:14+00:00</time>
      </trkpt>
      <trkpt lat="49.94448" lon="6.19305">
        <ele>283</ele>
        <time>2026-08-24T17:58:17+00:00</time>
      </trkpt>
      <trkpt lat="49.94476" lon="6.19309">
        <ele>280</ele>
        <time>2026-08-24T17:58:20+00:00</time>
      </trkpt>
      <trkpt lat="49.9449" lon="6.19306">
        <ele>279</ele>
        <time>2026-08-24T17:58:23+00:00</time>
      </trkpt>
      <trkpt lat="49.945" lon="6.19302">
        <ele>288</ele>
        <time>2026-08-24T17:58:26+00:00</time>
      </trkpt>
      <trkpt lat="49.94504" lon="6.19301">
        <ele>279</ele>
        <time>2026-08-24T17:58:29+00:00</time>
      </trkpt>
      <trkpt lat="49.94505" lon="6.19297">
        <ele>283</ele>
        <time>2026-08-24T17:58:32+00:00</time>
      </trkpt>
      <trkpt lat="49.94509" lon="6.19259">
        <ele>297</ele>
        <time>2026-08-24T17:58:35+00:00</time>
      </trkpt>
      <trkpt lat="49.94515" lon="6.19197">
        <ele>297</ele>
        <time>2026-08-24T17:58:38+00:00</time>
      </trkpt>
      <trkpt lat="49.94516" lon="6.19192">
        <ele>297</ele>
        <time>2026-08-24T17:58:41+00:00</time>
      </trkpt>
      <trkpt lat="49.94522" lon="6.19232">
        <ele>288</ele>
        <time>2026-08-24T17:58:44+00:00</time>
      </trkpt>
      <trkpt lat="49.94525" lon="6.19236">
        <ele>288</ele>
        <time>2026-08-24T17:58:47+00:00</time>
      </trkpt>
      <trkpt lat="49.94525" lon="6.19225">
        <ele>290</ele>
        <time>2026-08-24T17:58:50+00:00</time>
      </trkpt>
      <trkpt lat="49.94526" lon="6.19222">
        <ele>290</ele>
        <time>2026-08-24T17:58:53+00:00</time>
      </trkpt>
      <trkpt lat="49.94528" lon="6.19223">
        <ele>290</ele>
        <time>2026-08-24T17:58:56+00:00</time>
      </trkpt>
      <trkpt lat="49.94531" lon="6.19239">
        <ele>279</ele>
        <time>2026-08-24T17:58:59+00:00</time>
      </trkpt>
      <trkpt lat="49.94532" lon="6.19232">
        <ele>279</ele>
        <time>2026-08-24T17:59:02+00:00</time>
      </trkpt>
      <trkpt lat="49.94538" lon="6.19248">
        <ele>279</ele>
        <time>2026-08-24T17:59:05+00:00</time>
      </trkpt>
      <trkpt lat="49.9454" lon="6.19232">
        <ele>279</ele>
        <time>2026-08-24T17:59:08+00:00</time>
      </trkpt>
      <trkpt lat="49.94544" lon="6.19229">
        <ele>269</ele>
        <time>2026-08-24T17:59:11+00:00</time>
      </trkpt>
      <trkpt lat="49.94548" lon="6.19233">
        <ele>269</ele>
        <time>2026-08-24T17:59:14+00:00</time>
      </trkpt>
      <trkpt lat="49.9456" lon="6.1926">
        <ele>260</ele>
        <time>2026-08-24T17:59:17+00:00</time>
      </trkpt>
      <trkpt lat="49.94577" lon="6.19298">
        <ele>261</ele>
        <time>2026-08-24T17:59:20+00:00</time>
      </trkpt>
      <trkpt lat="49.94592" lon="6.19326">
        <ele>260</ele>
        <time>2026-08-24T17:59:23+00:00</time>
      </trkpt>
      <trkpt lat="49.9461" lon="6.19359">
        <ele>260</ele>
        <time>2026-08-24T17:59:26+00:00</time>
      </trkpt>
      <trkpt lat="49.94626" lon="6.19389">
        <ele>259</ele>
        <time>2026-08-24T17:59:29+00:00</time>
      </trkpt>
      <trkpt lat="49.94649" lon="6.1943">
        <ele>258</ele>
        <time>2026-08-24T17:59:32+00:00</time>
      </trkpt>
      <trkpt lat="49.94667" lon="6.1946">
        <ele>258</ele>
        <time>2026-08-24T17:59:35+00:00</time>
      </trkpt>
      <trkpt lat="49.94697" lon="6.19509">
        <ele>259</ele>
        <time>2026-08-24T17:59:38+00:00</time>
      </trkpt>
      <trkpt lat="49.94728" lon="6.19554">
        <ele>260</ele>
        <time>2026-08-24T17:59:41+00:00</time>
      </trkpt>
      <trkpt lat="49.94731" lon="6.19557">
        <ele>264</ele>
        <time>2026-08-24T17:59:44+00:00</time>
      </trkpt>
      <trkpt lat="49.94735" lon="6.1956">
        <ele>264</ele>
        <time>2026-08-24T17:59:47+00:00</time>
      </trkpt>
      <trkpt lat="49.94744" lon="6.19564">
        <ele>265</ele>
        <time>2026-08-24T17:59:50+00:00</time>
      </trkpt>
      <trkpt lat="49.94776" lon="6.19564">
        <ele>277</ele>
        <time>2026-08-24T17:59:53+00:00</time>
      </trkpt>
      <trkpt lat="49.948" lon="6.19562">
        <ele>281</ele>
        <time>2026-08-24T17:59:56+00:00</time>
      </trkpt>
      <trkpt lat="49.94828" lon="6.1956">
        <ele>281</ele>
        <time>2026-08-24T17:59:59+00:00</time>
      </trkpt>
      <trkpt lat="49.94832" lon="6.19558">
        <ele>281</ele>
        <time>2026-08-24T18:00:02+00:00</time>
      </trkpt>
      <trkpt lat="49.94834" lon="6.19553">
        <ele>281</ele>
        <time>2026-08-24T18:00:05+00:00</time>
      </trkpt>
      <trkpt lat="49.94832" lon="6.19548">
        <ele>285</ele>
        <time>2026-08-24T18:00:08+00:00</time>
      </trkpt>
      <trkpt lat="49.94813" lon="6.19543">
        <ele>286</ele>
        <time>2026-08-24T18:00:11+00:00</time>
      </trkpt>
      <trkpt lat="49.94789" lon="6.19532">
        <ele>289</ele>
        <time>2026-08-24T18:00:14+00:00</time>
      </trkpt>
      <trkpt lat="49.94765" lon="6.19514">
        <ele>290</ele>
        <time>2026-08-24T18:00:17+00:00</time>
      </trkpt>
      <trkpt lat="49.9475" lon="6.19486">
        <ele>292</ele>
        <time>2026-08-24T18:00:20+00:00</time>
      </trkpt>
      <trkpt lat="49.94729" lon="6.19441">
        <ele>296</ele>
        <time>2026-08-24T18:00:23+00:00</time>
      </trkpt>
      <trkpt lat="49.94713" lon="6.19391">
        <ele>306</ele>
        <time>2026-08-24T18:00:26+00:00</time>
      </trkpt>
      <trkpt lat="49.94704" lon="6.19365">
        <ele>311</ele>
        <time>2026-08-24T18:00:29+00:00</time>
      </trkpt>
      <trkpt lat="49.94696" lon="6.19333">
        <ele>315</ele>
        <time>2026-08-24T18:00:32+00:00</time>
      </trkpt>
      <trkpt lat="49.94687" lon="6.19298">
        <ele>321</ele>
        <time>2026-08-24T18:00:35+00:00</time>
      </trkpt>
      <trkpt lat="49.9468" lon="6.19262">
        <ele>326</ele>
        <time>2026-08-24T18:00:38+00:00</time>
      </trkpt>
      <trkpt lat="49.94671" lon="6.19215">
        <ele>333</ele>
        <time>2026-08-24T18:00:41+00:00</time>
      </trkpt>
      <trkpt lat="49.94663" lon="6.1916">
        <ele>334</ele>
        <time>2026-08-24T18:00:44+00:00</time>
      </trkpt>
      <trkpt lat="49.94659" lon="6.19102">
        <ele>335</ele>
        <time>2026-08-24T18:00:47+00:00</time>
      </trkpt>
      <trkpt lat="49.94656" lon="6.19042">
        <ele>339</ele>
        <time>2026-08-24T18:00:50+00:00</time>
      </trkpt>
      <trkpt lat="49.94657" lon="6.19006">
        <ele>345</ele>
        <time>2026-08-24T18:00:53+00:00</time>
      </trkpt>
      <trkpt lat="49.94657" lon="6.18978">
        <ele>352</ele>
        <time>2026-08-24T18:00:56+00:00</time>
      </trkpt>
      <trkpt lat="49.94672" lon="6.19008">
        <ele>359</ele>
        <time>2026-08-24T18:00:59+00:00</time>
      </trkpt>
      <trkpt lat="49.94693" lon="6.1905">
        <ele>370</ele>
        <time>2026-08-24T18:01:02+00:00</time>
      </trkpt>
      <trkpt lat="49.9472" lon="6.19092">
        <ele>373</ele>
        <time>2026-08-24T18:01:05+00:00</time>
      </trkpt>
      <trkpt lat="49.94741" lon="6.1911">
        <ele>379</ele>
        <time>2026-08-24T18:01:08+00:00</time>
      </trkpt>
      <trkpt lat="49.94766" lon="6.19141">
        <ele>386</ele>
        <time>2026-08-24T18:01:11+00:00</time>
      </trkpt>
      <trkpt lat="49.94786" lon="6.19174">
        <ele>388</ele>
        <time>2026-08-24T18:01:14+00:00</time>
      </trkpt>
      <trkpt lat="49.948" lon="6.1919">
        <ele>390</ele>
        <time>2026-08-24T18:01:17+00:00</time>
      </trkpt>
      <trkpt lat="49.94809" lon="6.19196">
        <ele>392</ele>
        <time>2026-08-24T18:01:20+00:00</time>
      </trkpt>
      <trkpt lat="49.94813" lon="6.19204">
        <ele>393</ele>
        <time>2026-08-24T18:01:23+00:00</time>
      </trkpt>
      <trkpt lat="49.94834" lon="6.19219">
        <ele>397</ele>
        <time>2026-08-24T18:01:26+00:00</time>
      </trkpt>
      <trkpt lat="49.9484" lon="6.19221">
        <ele>395</ele>
        <time>2026-08-24T18:01:29+00:00</time>
      </trkpt>
      <trkpt lat="49.94845" lon="6.19219">
        <ele>400</ele>
        <time>2026-08-24T18:01:32+00:00</time>
      </trkpt>
      <trkpt lat="49.94854" lon="6.19209">
        <ele>405</ele>
        <time>2026-08-24T18:01:35+00:00</time>
      </trkpt>
      <trkpt lat="49.94856" lon="6.19202">
        <ele>405</ele>
        <time>2026-08-24T18:01:38+00:00</time>
      </trkpt>
      <trkpt lat="49.94859" lon="6.192">
        <ele>407</ele>
        <time>2026-08-24T18:01:41+00:00</time>
      </trkpt>
      <trkpt lat="49.94872" lon="6.19175">
        <ele>407</ele>
        <time>2026-08-24T18:01:44+00:00</time>
      </trkpt>
      <trkpt lat="49.94879" lon="6.19156">
        <ele>413</ele>
        <time>2026-08-24T18:01:47+00:00</time>
      </trkpt>
      <trkpt lat="49.9489" lon="6.1914">
        <ele>409</ele>
        <time>2026-08-24T18:01:50+00:00</time>
      </trkpt>
      <trkpt lat="49.94902" lon="6.19123">
        <ele>409</ele>
        <time>2026-08-24T18:01:53+00:00</time>
      </trkpt>
      <trkpt lat="49.94916" lon="6.19112">
        <ele>410</ele>
        <time>2026-08-24T18:01:56+00:00</time>
      </trkpt>
      <trkpt lat="49.9492" lon="6.19108">
        <ele>410</ele>
        <time>2026-08-24T18:01:59+00:00</time>
      </trkpt>
      <trkpt lat="49.94945" lon="6.19097">
        <ele>407</ele>
        <time>2026-08-24T18:02:02+00:00</time>
      </trkpt>
      <trkpt lat="49.94954" lon="6.19097">
        <ele>411</ele>
        <time>2026-08-24T18:02:05+00:00</time>
      </trkpt>
      <trkpt lat="49.94966" lon="6.19101">
        <ele>405</ele>
        <time>2026-08-24T18:02:08+00:00</time>
      </trkpt>
      <trkpt lat="49.94981" lon="6.19108">
        <ele>407</ele>
        <time>2026-08-24T18:02:11+00:00</time>
      </trkpt>
      <trkpt lat="49.94981" lon="6.19108">
        <ele>407</ele>
        <time>2026-08-24T18:02:14+00:00</time>
      </trkpt>
      <trkpt lat="49.95003" lon="6.19123">
        <ele>399</ele>
        <time>2026-08-24T18:02:17+00:00</time>
      </trkpt>
      <trkpt lat="49.95014" lon="6.19142">
        <ele>390</ele>
        <time>2026-08-24T18:02:20+00:00</time>
      </trkpt>
      <trkpt lat="49.95023" lon="6.19152">
        <ele>386</ele>
        <time>2026-08-24T18:02:23+00:00</time>
      </trkpt>
      <trkpt lat="49.95025" lon="6.1916">
        <ele>386</ele>
        <time>2026-08-24T18:02:26+00:00</time>
      </trkpt>
      <trkpt lat="49.95026" lon="6.19164">
        <ele>380</ele>
        <time>2026-08-24T18:02:29+00:00</time>
      </trkpt>
      <trkpt lat="49.95029" lon="6.19167">
        <ele>380</ele>
        <time>2026-08-24T18:02:32+00:00</time>
      </trkpt>
      <trkpt lat="49.95039" lon="6.19163">
        <ele>389</ele>
        <time>2026-08-24T18:02:35+00:00</time>
      </trkpt>
      <trkpt lat="49.95059" lon="6.19147">
        <ele>389</ele>
        <time>2026-08-24T18:02:38+00:00</time>
      </trkpt>
      <trkpt lat="49.95079" lon="6.19131">
        <ele>389</ele>
        <time>2026-08-24T18:02:41+00:00</time>
      </trkpt>
      <trkpt lat="49.95103" lon="6.19106">
        <ele>381</ele>
        <time>2026-08-24T18:02:44+00:00</time>
      </trkpt>
      <trkpt lat="49.95127" lon="6.19077">
        <ele>374</ele>
        <time>2026-08-24T18:02:47+00:00</time>
      </trkpt>
      <trkpt lat="49.95143" lon="6.19057">
        <ele>366</ele>
        <time>2026-08-24T18:02:50+00:00</time>
      </trkpt>
      <trkpt lat="49.95153" lon="6.19039">
        <ele>361</ele>
        <time>2026-08-24T18:02:53+00:00</time>
      </trkpt>
      <trkpt lat="49.95163" lon="6.19018">
        <ele>360</ele>
        <time>2026-08-24T18:02:56+00:00</time>
      </trkpt>
      <trkpt lat="49.95178" lon="6.18972">
        <ele>359</ele>
        <time>2026-08-24T18:02:59+00:00</time>
      </trkpt>
      <trkpt lat="49.95184" lon="6.18947">
        <ele>358</ele>
        <time>2026-08-24T18:03:02+00:00</time>
      </trkpt>
      <trkpt lat="49.95191" lon="6.1891">
        <ele>351</ele>
        <time>2026-08-24T18:03:05+00:00</time>
      </trkpt>
      <trkpt lat="49.95197" lon="6.18874">
        <ele>350</ele>
        <time>2026-08-24T18:03:08+00:00</time>
      </trkpt>
      <trkpt lat="49.95205" lon="6.18831">
        <ele>347</ele>
        <time>2026-08-24T18:03:11+00:00</time>
      </trkpt>
      <trkpt lat="49.95208" lon="6.1882">
        <ele>347</ele>
        <time>2026-08-24T18:03:14+00:00</time>
      </trkpt>
      <trkpt lat="49.95211" lon="6.18811">
        <ele>345</ele>
        <time>2026-08-24T18:03:17+00:00</time>
      </trkpt>
      <trkpt lat="49.95217" lon="6.1881">
        <ele>345</ele>
        <time>2026-08-24T18:03:20+00:00</time>
      </trkpt>
      <trkpt lat="49.95221" lon="6.18814">
        <ele>343</ele>
        <time>2026-08-24T18:03:23+00:00</time>
      </trkpt>
      <trkpt lat="49.95249" lon="6.18855">
        <ele>339</ele>
        <time>2026-08-24T18:03:26+00:00</time>
      </trkpt>
      <trkpt lat="49.95255" lon="6.18861">
        <ele>337</ele>
        <time>2026-08-24T18:03:29+00:00</time>
      </trkpt>
      <trkpt lat="49.95262" lon="6.18863">
        <ele>336</ele>
        <time>2026-08-24T18:03:32+00:00</time>
      </trkpt>
      <trkpt lat="49.95274" lon="6.18878">
        <ele>334</ele>
        <time>2026-08-24T18:03:35+00:00</time>
      </trkpt>
      <trkpt lat="49.95299" lon="6.18914">
        <ele>331</ele>
        <time>2026-08-24T18:03:38+00:00</time>
      </trkpt>
      <trkpt lat="49.95327" lon="6.18946">
        <ele>329</ele>
        <time>2026-08-24T18:03:41+00:00</time>
      </trkpt>
      <trkpt lat="49.95345" lon="6.18971">
        <ele>328</ele>
        <time>2026-08-24T18:03:44+00:00</time>
      </trkpt>
      <trkpt lat="49.95368" lon="6.19003">
        <ele>326</ele>
        <time>2026-08-24T18:03:47+00:00</time>
      </trkpt>
      <trkpt lat="49.95385" lon="6.19031">
        <ele>323</ele>
        <time>2026-08-24T18:03:50+00:00</time>
      </trkpt>
      <trkpt lat="49.95407" lon="6.1906">
        <ele>322</ele>
        <time>2026-08-24T18:03:53+00:00</time>
      </trkpt>
      <trkpt lat="49.9543" lon="6.19089">
        <ele>319</ele>
        <time>2026-08-24T18:03:56+00:00</time>
      </trkpt>
      <trkpt lat="49.95453" lon="6.19119">
        <ele>313</ele>
        <time>2026-08-24T18:03:59+00:00</time>
      </trkpt>
      <trkpt lat="49.95481" lon="6.19143">
        <ele>305</ele>
        <time>2026-08-24T18:04:02+00:00</time>
      </trkpt>
      <trkpt lat="49.95495" lon="6.19155">
        <ele>302</ele>
        <time>2026-08-24T18:04:05+00:00</time>
      </trkpt>
      <trkpt lat="49.95513" lon="6.19163">
        <ele>301</ele>
        <time>2026-08-24T18:04:08+00:00</time>
      </trkpt>
      <trkpt lat="49.95538" lon="6.19167">
        <ele>301</ele>
        <time>2026-08-24T18:04:11+00:00</time>
      </trkpt>
      <trkpt lat="49.95554" lon="6.19165">
        <ele>301</ele>
        <time>2026-08-24T18:04:14+00:00</time>
      </trkpt>
      <trkpt lat="49.9557" lon="6.19159">
        <ele>300</ele>
        <time>2026-08-24T18:04:17+00:00</time>
      </trkpt>
      <trkpt lat="49.95589" lon="6.19153">
        <ele>300</ele>
        <time>2026-08-24T18:04:20+00:00</time>
      </trkpt>
      <trkpt lat="49.95604" lon="6.19143">
        <ele>301</ele>
        <time>2026-08-24T18:04:23+00:00</time>
      </trkpt>
      <trkpt lat="49.95617" lon="6.19127">
        <ele>298</ele>
        <time>2026-08-24T18:04:26+00:00</time>
      </trkpt>
      <trkpt lat="49.95632" lon="6.19109">
        <ele>296</ele>
        <time>2026-08-24T18:04:29+00:00</time>
      </trkpt>
      <trkpt lat="49.95643" lon="6.19088">
        <ele>293</ele>
        <time>2026-08-24T18:04:32+00:00</time>
      </trkpt>
      <trkpt lat="49.95647" lon="6.19071">
        <ele>294</ele>
        <time>2026-08-24T18:04:35+00:00</time>
      </trkpt>
      <trkpt lat="49.95652" lon="6.19066">
        <ele>285</ele>
        <time>2026-08-24T18:04:38+00:00</time>
      </trkpt>
      <trkpt lat="49.95661" lon="6.19066">
        <ele>281</ele>
        <time>2026-08-24T18:04:41+00:00</time>
      </trkpt>
      <trkpt lat="49.95659" lon="6.19053">
        <ele>283</ele>
        <time>2026-08-24T18:04:44+00:00</time>
      </trkpt>
      <trkpt lat="49.95655" lon="6.19043">
        <ele>282</ele>
        <time>2026-08-24T18:04:47+00:00</time>
      </trkpt>
      <trkpt lat="49.95648" lon="6.19034">
        <ele>281</ele>
        <time>2026-08-24T18:04:50+00:00</time>
      </trkpt>
      <trkpt lat="49.95652" lon="6.19024">
        <ele>282</ele>
        <time>2026-08-24T18:04:53+00:00</time>
      </trkpt>
      <trkpt lat="49.95654" lon="6.1902">
        <ele>281</ele>
        <time>2026-08-24T18:04:56+00:00</time>
      </trkpt>
      <trkpt lat="49.95663" lon="6.19019">
        <ele>282</ele>
        <time>2026-08-24T18:04:59+00:00</time>
      </trkpt>
      <trkpt lat="49.95664" lon="6.19019">
        <ele>282</ele>
        <time>2026-08-24T18:05:02+00:00</time>
      </trkpt>
      <trkpt lat="49.95673" lon="6.19015">
        <ele>282</ele>
        <time>2026-08-24T18:05:05+00:00</time>
      </trkpt>
      <trkpt lat="49.95694" lon="6.19012">
        <ele>282</ele>
        <time>2026-08-24T18:05:08+00:00</time>
      </trkpt>
      <trkpt lat="49.9573" lon="6.18992">
        <ele>282</ele>
        <time>2026-08-24T18:05:11+00:00</time>
      </trkpt>
      <trkpt lat="49.95739" lon="6.18982">
        <ele>282</ele>
        <time>2026-08-24T18:05:14+00:00</time>
      </trkpt>
      <trkpt lat="49.95747" lon="6.1897">
        <ele>282</ele>
        <time>2026-08-24T18:05:17+00:00</time>
      </trkpt>
      <trkpt lat="49.95753" lon="6.18968">
        <ele>286</ele>
        <time>2026-08-24T18:05:20+00:00</time>
      </trkpt>
      <trkpt lat="49.95757" lon="6.18959">
        <ele>286</ele>
        <time>2026-08-24T18:05:23+00:00</time>
      </trkpt>
      <trkpt lat="49.9576" lon="6.18959">
        <ele>286</ele>
        <time>2026-08-24T18:05:26+00:00</time>
      </trkpt>
      <trkpt lat="49.95763" lon="6.18959">
        <ele>289</ele>
        <time>2026-08-24T18:05:29+00:00</time>
      </trkpt>
      <trkpt lat="49.95763" lon="6.18956">
        <ele>289</ele>
        <time>2026-08-24T18:05:32+00:00</time>
      </trkpt>
      <trkpt lat="49.95768" lon="6.18955">
        <ele>289</ele>
        <time>2026-08-24T18:05:35+00:00</time>
      </trkpt>
      <trkpt lat="49.95774" lon="6.18949">
        <ele>293</ele>
        <time>2026-08-24T18:05:38+00:00</time>
      </trkpt>
      <trkpt lat="49.95779" lon="6.18942">
        <ele>293</ele>
        <time>2026-08-24T18:05:41+00:00</time>
      </trkpt>
      <trkpt lat="49.95779" lon="6.18939">
        <ele>294</ele>
        <time>2026-08-24T18:05:44+00:00</time>
      </trkpt>
      <trkpt lat="49.9578" lon="6.18939">
        <ele>294</ele>
        <time>2026-08-24T18:05:47+00:00</time>
      </trkpt>
      <trkpt lat="49.95783" lon="6.18937">
        <ele>299</ele>
        <time>2026-08-24T18:05:50+00:00</time>
      </trkpt>
      <trkpt lat="49.95784" lon="6.18939">
        <ele>299</ele>
        <time>2026-08-24T18:05:53+00:00</time>
      </trkpt>
      <trkpt lat="49.95788" lon="6.18935">
        <ele>299</ele>
        <time>2026-08-24T18:05:56+00:00</time>
      </trkpt>
      <trkpt lat="49.9579" lon="6.18931">
        <ele>299</ele>
        <time>2026-08-24T18:05:59+00:00</time>
      </trkpt>
      <trkpt lat="49.95801" lon="6.18925">
        <ele>310</ele>
        <time>2026-08-24T18:06:02+00:00</time>
      </trkpt>
      <trkpt lat="49.95798" lon="6.18918">
        <ele>306</ele>
        <time>2026-08-24T18:06:05+00:00</time>
      </trkpt>
      <trkpt lat="49.95799" lon="6.1891">
        <ele>306</ele>
        <time>2026-08-24T18:06:08+00:00</time>
      </trkpt>
      <trkpt lat="49.95807" lon="6.18893">
        <ele>316</ele>
        <time>2026-08-24T18:06:11+00:00</time>
      </trkpt>
      <trkpt lat="49.95805" lon="6.18866">
        <ele>316</ele>
        <time>2026-08-24T18:06:14+00:00</time>
      </trkpt>
      <trkpt lat="49.95807" lon="6.18861">
        <ele>316</ele>
        <time>2026-08-24T18:06:17+00:00</time>
      </trkpt>
      <trkpt lat="49.9581" lon="6.18871">
        <ele>316</ele>
        <time>2026-08-24T18:06:20+00:00</time>
      </trkpt>
      <trkpt lat="49.95812" lon="6.18863">
        <ele>322</ele>
        <time>2026-08-24T18:06:23+00:00</time>
      </trkpt>
      <trkpt lat="49.9582" lon="6.18853">
        <ele>322</ele>
        <time>2026-08-24T18:06:26+00:00</time>
      </trkpt>
      <trkpt lat="49.95819" lon="6.18865">
        <ele>322</ele>
        <time>2026-08-24T18:06:29+00:00</time>
      </trkpt>
      <trkpt lat="49.95822" lon="6.18868">
        <ele>325</ele>
        <time>2026-08-24T18:06:32+00:00</time>
      </trkpt>
      <trkpt lat="49.95828" lon="6.18859">
        <ele>326</ele>
        <time>2026-08-24T18:06:35+00:00</time>
      </trkpt>
      <trkpt lat="49.95835" lon="6.18856">
        <ele>327</ele>
        <time>2026-08-24T18:06:38+00:00</time>
      </trkpt>
      <trkpt lat="49.95839" lon="6.18852">
        <ele>327</ele>
        <time>2026-08-24T18:06:41+00:00</time>
      </trkpt>
      <trkpt lat="49.95846" lon="6.18841">
        <ele>325</ele>
        <time>2026-08-24T18:06:44+00:00</time>
      </trkpt>
      <trkpt lat="49.95857" lon="6.18829">
        <ele>324</ele>
        <time>2026-08-24T18:06:47+00:00</time>
      </trkpt>
      <trkpt lat="49.95866" lon="6.18826">
        <ele>324</ele>
        <time>2026-08-24T18:06:50+00:00</time>
      </trkpt>
      <trkpt lat="49.95883" lon="6.18829">
        <ele>321</ele>
        <time>2026-08-24T18:06:53+00:00</time>
      </trkpt>
      <trkpt lat="49.95903" lon="6.18836">
        <ele>320</ele>
        <time>2026-08-24T18:06:56+00:00</time>
      </trkpt>
      <trkpt lat="49.95904" lon="6.18837">
        <ele>320</ele>
        <time>2026-08-24T18:06:59+00:00</time>
      </trkpt>
      <trkpt lat="49.95904" lon="6.18829">
        <ele>318</ele>
        <time>2026-08-24T18:07:02+00:00</time>
      </trkpt>
      <trkpt lat="49.959" lon="6.18822">
        <ele>319</ele>
        <time>2026-08-24T18:07:05+00:00</time>
      </trkpt>
      <trkpt lat="49.95876" lon="6.18795">
        <ele>313</ele>
        <time>2026-08-24T18:07:08+00:00</time>
      </trkpt>
      <trkpt lat="49.95867" lon="6.18782">
        <ele>311</ele>
        <time>2026-08-24T18:07:11+00:00</time>
      </trkpt>
      <trkpt lat="49.9586" lon="6.18767">
        <ele>305</ele>
        <time>2026-08-24T18:07:14+00:00</time>
      </trkpt>
      <trkpt lat="49.95867" lon="6.18768">
        <ele>304</ele>
        <time>2026-08-24T18:07:17+00:00</time>
      </trkpt>
      <trkpt lat="49.95861" lon="6.18756">
        <ele>300</ele>
        <time>2026-08-24T18:07:20+00:00</time>
      </trkpt>
      <trkpt lat="49.95849" lon="6.18743">
        <ele>301</ele>
        <time>2026-08-24T18:07:23+00:00</time>
      </trkpt>
      <trkpt lat="49.95852" lon="6.18742">
        <ele>296</ele>
        <time>2026-08-24T18:07:26+00:00</time>
      </trkpt>
      <trkpt lat="49.95855" lon="6.18745">
        <ele>296</ele>
        <time>2026-08-24T18:07:29+00:00</time>
      </trkpt>
      <trkpt lat="49.95867" lon="6.18741">
        <ele>297</ele>
        <time>2026-08-24T18:07:32+00:00</time>
      </trkpt>
      <trkpt lat="49.9588" lon="6.18726">
        <ele>290</ele>
        <time>2026-08-24T18:07:35+00:00</time>
      </trkpt>
      <trkpt lat="49.9589" lon="6.18707">
        <ele>286</ele>
        <time>2026-08-24T18:07:38+00:00</time>
      </trkpt>
      <trkpt lat="49.95891" lon="6.187">
        <ele>284</ele>
        <time>2026-08-24T18:07:41+00:00</time>
      </trkpt>
      <trkpt lat="49.95913" lon="6.18658">
        <ele>276</ele>
        <time>2026-08-24T18:07:44+00:00</time>
      </trkpt>
      <trkpt lat="49.95928" lon="6.18635">
        <ele>274</ele>
        <time>2026-08-24T18:07:47+00:00</time>
      </trkpt>
      <trkpt lat="49.95953" lon="6.18605">
        <ele>273</ele>
        <time>2026-08-24T18:07:50+00:00</time>
      </trkpt>
      <trkpt lat="49.95978" lon="6.18575">
        <ele>270</ele>
        <time>2026-08-24T18:07:53+00:00</time>
      </trkpt>
      <trkpt lat="49.96019" lon="6.18525">
        <ele>264</ele>
        <time>2026-08-24T18:07:56+00:00</time>
      </trkpt>
      <trkpt lat="49.96037" lon="6.18504">
        <ele>262</ele>
        <time>2026-08-24T18:07:59+00:00</time>
      </trkpt>
      <trkpt lat="49.9606" lon="6.18482">
        <ele>259</ele>
        <time>2026-08-24T18:08:02+00:00</time>
      </trkpt>
      <trkpt lat="49.961" lon="6.18446">
        <ele>256</ele>
        <time>2026-08-24T18:08:05+00:00</time>
      </trkpt>
      <trkpt lat="49.96103" lon="6.18441">
        <ele>255</ele>
        <time>2026-08-24T18:08:08+00:00</time>
      </trkpt>
      <trkpt lat="49.96103" lon="6.18438">
        <ele>252</ele>
        <time>2026-08-24T18:08:11+00:00</time>
      </trkpt>
      <trkpt lat="49.96085" lon="6.18451">
        <ele>254</ele>
        <time>2026-08-24T18:08:14+00:00</time>
      </trkpt>
      <trkpt lat="49.96059" lon="6.18459">
        <ele>252</ele>
        <time>2026-08-24T18:08:17+00:00</time>
      </trkpt>
      <trkpt lat="49.9602" lon="6.18471">
        <ele>252</ele>
        <time>2026-08-24T18:08:20+00:00</time>
      </trkpt>
      <trkpt lat="49.96005" lon="6.18473">
        <ele>251</ele>
        <time>2026-08-24T18:08:23+00:00</time>
      </trkpt>
      <trkpt lat="49.95977" lon="6.1847">
        <ele>247</ele>
        <time>2026-08-24T18:08:26+00:00</time>
      </trkpt>
      <trkpt lat="49.95966" lon="6.18473">
        <ele>242</ele>
        <time>2026-08-24T18:08:29+00:00</time>
      </trkpt>
      <trkpt lat="49.95943" lon="6.18494">
        <ele>246</ele>
        <time>2026-08-24T18:08:32+00:00</time>
      </trkpt>
      <trkpt lat="49.95921" lon="6.18515">
        <ele>245</ele>
        <time>2026-08-24T18:08:35+00:00</time>
      </trkpt>
      <trkpt lat="49.95894" lon="6.1854">
        <ele>243</ele>
        <time>2026-08-24T18:08:38+00:00</time>
      </trkpt>
      <trkpt lat="49.95868" lon="6.18564">
        <ele>243</ele>
        <time>2026-08-24T18:08:41+00:00</time>
      </trkpt>
      <trkpt lat="49.95842" lon="6.18589">
        <ele>240</ele>
        <time>2026-08-24T18:08:44+00:00</time>
      </trkpt>
      <trkpt lat="49.95806" lon="6.18622">
        <ele>236</ele>
        <time>2026-08-24T18:08:47+00:00</time>
      </trkpt>
      <trkpt lat="49.95768" lon="6.18646">
        <ele>228</ele>
        <time>2026-08-24T18:08:50+00:00</time>
      </trkpt>
      <trkpt lat="49.95759" lon="6.18656">
        <ele>225</ele>
        <time>2026-08-24T18:08:53+00:00</time>
      </trkpt>
      <trkpt lat="49.95752" lon="6.18668">
        <ele>226</ele>
        <time>2026-08-24T18:08:56+00:00</time>
      </trkpt>
      <trkpt lat="49.95747" lon="6.18689">
        <ele>225</ele>
        <time>2026-08-24T18:08:59+00:00</time>
      </trkpt>
      <trkpt lat="49.95742" lon="6.18697">
        <ele>226</ele>
        <time>2026-08-24T18:09:02+00:00</time>
      </trkpt>
      <trkpt lat="49.95739" lon="6.18706">
        <ele>225</ele>
        <time>2026-08-24T18:09:05+00:00</time>
      </trkpt>
      <trkpt lat="49.95737" lon="6.18719">
        <ele>225</ele>
        <time>2026-08-24T18:09:08+00:00</time>
      </trkpt>
      <trkpt lat="49.95733" lon="6.18728">
        <ele>225</ele>
        <time>2026-08-24T18:09:11+00:00</time>
      </trkpt>
      <trkpt lat="49.95733" lon="6.1875">
        <ele>227</ele>
        <time>2026-08-24T18:09:14+00:00</time>
      </trkpt>
      <trkpt lat="49.95729" lon="6.1877">
        <ele>225</ele>
        <time>2026-08-24T18:09:17+00:00</time>
      </trkpt>
      <trkpt lat="49.9572" lon="6.18797">
        <ele>225</ele>
        <time>2026-08-24T18:09:20+00:00</time>
      </trkpt>
      <trkpt lat="49.95718" lon="6.18814">
        <ele>225</ele>
        <time>2026-08-24T18:09:23+00:00</time>
      </trkpt>
      <trkpt lat="49.95718" lon="6.1884">
        <ele>226</ele>
        <time>2026-08-24T18:09:26+00:00</time>
      </trkpt>
      <trkpt lat="49.9572" lon="6.18855">
        <ele>226</ele>
        <time>2026-08-24T18:09:29+00:00</time>
      </trkpt>
      <trkpt lat="49.95719" lon="6.18867">
        <ele>226</ele>
        <time>2026-08-24T18:09:32+00:00</time>
      </trkpt>
      <trkpt lat="49.95716" lon="6.18872">
        <ele>227</ele>
        <time>2026-08-24T18:09:35+00:00</time>
      </trkpt>
      <trkpt lat="49.95716" lon="6.18882">
        <ele>229</ele>
        <time>2026-08-24T18:09:38+00:00</time>
      </trkpt>
      <trkpt lat="49.95711" lon="6.18893">
        <ele>229</ele>
        <time>2026-08-24T18:09:41+00:00</time>
      </trkpt>
      <trkpt lat="49.957" lon="6.18902">
        <ele>229</ele>
        <time>2026-08-24T18:09:44+00:00</time>
      </trkpt>
      <trkpt lat="49.95679" lon="6.18911">
        <ele>230</ele>
        <time>2026-08-24T18:09:47+00:00</time>
      </trkpt>
      <trkpt lat="49.95661" lon="6.18914">
        <ele>229</ele>
        <time>2026-08-24T18:09:50+00:00</time>
      </trkpt>
      <trkpt lat="49.95639" lon="6.1891">
        <ele>229</ele>
        <time>2026-08-24T18:09:53+00:00</time>
      </trkpt>
      <trkpt lat="49.95622" lon="6.18903">
        <ele>230</ele>
        <time>2026-08-24T18:09:56+00:00</time>
      </trkpt>
      <trkpt lat="49.95601" lon="6.18888">
        <ele>230</ele>
        <time>2026-08-24T18:09:59+00:00</time>
      </trkpt>
      <trkpt lat="49.95582" lon="6.18867">
        <ele>232</ele>
        <time>2026-08-24T18:10:02+00:00</time>
      </trkpt>
      <trkpt lat="49.95566" lon="6.18845">
        <ele>235</ele>
        <time>2026-08-24T18:10:05+00:00</time>
      </trkpt>
      <trkpt lat="49.95549" lon="6.18822">
        <ele>236</ele>
        <time>2026-08-24T18:10:08+00:00</time>
      </trkpt>
      <trkpt lat="49.95528" lon="6.18791">
        <ele>232</ele>
        <time>2026-08-24T18:10:11+00:00</time>
      </trkpt>
      <trkpt lat="49.95487" lon="6.18729">
        <ele>230</ele>
        <time>2026-08-24T18:10:14+00:00</time>
      </trkpt>
      <trkpt lat="49.95463" lon="6.18695">
        <ele>233</ele>
        <time>2026-08-24T18:10:17+00:00</time>
      </trkpt>
      <trkpt lat="49.95439" lon="6.18662">
        <ele>232</ele>
        <time>2026-08-24T18:10:20+00:00</time>
      </trkpt>
      <trkpt lat="49.95392" lon="6.18597">
        <ele>232</ele>
        <time>2026-08-24T18:10:23+00:00</time>
      </trkpt>
      <trkpt lat="49.95376" lon="6.18563">
        <ele>237</ele>
        <time>2026-08-24T18:10:26+00:00</time>
      </trkpt>
      <trkpt lat="49.9535" lon="6.18507">
        <ele>239</ele>
        <time>2026-08-24T18:10:29+00:00</time>
      </trkpt>
      <trkpt lat="49.95339" lon="6.18476">
        <ele>237</ele>
        <time>2026-08-24T18:10:32+00:00</time>
      </trkpt>
      <trkpt lat="49.95327" lon="6.18443">
        <ele>236</ele>
        <time>2026-08-24T18:10:35+00:00</time>
      </trkpt>
      <trkpt lat="49.95314" lon="6.18397">
        <ele>231</ele>
        <time>2026-08-24T18:10:38+00:00</time>
      </trkpt>
      <trkpt lat="49.953" lon="6.18352">
        <ele>230</ele>
        <time>2026-08-24T18:10:41+00:00</time>
      </trkpt>
      <trkpt lat="49.95275" lon="6.18266">
        <ele>230</ele>
        <time>2026-08-24T18:10:44+00:00</time>
      </trkpt>
      <trkpt lat="49.95262" lon="6.18225">
        <ele>231</ele>
        <time>2026-08-24T18:10:47+00:00</time>
      </trkpt>
      <trkpt lat="49.9525" lon="6.18183">
        <ele>230</ele>
        <time>2026-08-24T18:10:50+00:00</time>
      </trkpt>
      <trkpt lat="49.95236" lon="6.18138">
        <ele>230</ele>
        <time>2026-08-24T18:10:53+00:00</time>
      </trkpt>
      <trkpt lat="49.95224" lon="6.18103">
        <ele>230</ele>
        <time>2026-08-24T18:10:56+00:00</time>
      </trkpt>
      <trkpt lat="49.95207" lon="6.18052">
        <ele>229</ele>
        <time>2026-08-24T18:10:59+00:00</time>
      </trkpt>
      <trkpt lat="49.95203" lon="6.18028">
        <ele>229</ele>
        <time>2026-08-24T18:11:02+00:00</time>
      </trkpt>
      <trkpt lat="49.95202" lon="6.18001">
        <ele>229</ele>
        <time>2026-08-24T18:11:05+00:00</time>
      </trkpt>
      <trkpt lat="49.95203" lon="6.17976">
        <ele>228</ele>
        <time>2026-08-24T18:11:08+00:00</time>
      </trkpt>
      <trkpt lat="49.95207" lon="6.17951">
        <ele>229</ele>
        <time>2026-08-24T18:11:11+00:00</time>
      </trkpt>
      <trkpt lat="49.95222" lon="6.17917">
        <ele>229</ele>
        <time>2026-08-24T18:11:14+00:00</time>
      </trkpt>
      <trkpt lat="49.95244" lon="6.17865">
        <ele>230</ele>
        <time>2026-08-24T18:11:17+00:00</time>
      </trkpt>
      <trkpt lat="49.95263" lon="6.17824">
        <ele>232</ele>
        <time>2026-08-24T18:11:20+00:00</time>
      </trkpt>
      <trkpt lat="49.95276" lon="6.17797">
        <ele>237</ele>
        <time>2026-08-24T18:11:23+00:00</time>
      </trkpt>
      <trkpt lat="49.9529" lon="6.17769">
        <ele>235</ele>
        <time>2026-08-24T18:11:26+00:00</time>
      </trkpt>
      <trkpt lat="49.95308" lon="6.17746">
        <ele>234</ele>
        <time>2026-08-24T18:11:29+00:00</time>
      </trkpt>
      <trkpt lat="49.95331" lon="6.17718">
        <ele>230</ele>
        <time>2026-08-24T18:11:32+00:00</time>
      </trkpt>
      <trkpt lat="49.9534" lon="6.17713">
        <ele>230</ele>
        <time>2026-08-24T18:11:35+00:00</time>
      </trkpt>
      <trkpt lat="49.95345" lon="6.1771">
        <ele>229</ele>
        <time>2026-08-24T18:11:38+00:00</time>
      </trkpt>
      <trkpt lat="49.95344" lon="6.17707">
        <ele>229</ele>
        <time>2026-08-24T18:11:41+00:00</time>
      </trkpt>
      <trkpt lat="49.95345" lon="6.1771">
        <ele>229</ele>
        <time>2026-08-24T18:11:44+00:00</time>
      </trkpt>
      <trkpt lat="49.95365" lon="6.17701">
        <ele>229</ele>
        <time>2026-08-24T18:11:47+00:00</time>
      </trkpt>
      <trkpt lat="49.95364" lon="6.17693">
        <ele>229</ele>
        <time>2026-08-24T18:11:50+00:00</time>
      </trkpt>
      <trkpt lat="49.95399" lon="6.17684">
        <ele>229</ele>
        <time>2026-08-24T18:11:53+00:00</time>
      </trkpt>
      <trkpt lat="49.95408" lon="6.17682">
        <ele>229</ele>
        <time>2026-08-24T18:11:56+00:00</time>
      </trkpt>
      <trkpt lat="49.95424" lon="6.17678">
        <ele>229</ele>
        <time>2026-08-24T18:11:59+00:00</time>
      </trkpt>
      <trkpt lat="49.95457" lon="6.17671">
        <ele>229</ele>
        <time>2026-08-24T18:12:02+00:00</time>
      </trkpt>
      <trkpt lat="49.9548" lon="6.17666">
        <ele>229</ele>
        <time>2026-08-24T18:12:05+00:00</time>
      </trkpt>
      <trkpt lat="49.95509" lon="6.1766">
        <ele>229</ele>
        <time>2026-08-24T18:12:08+00:00</time>
      </trkpt>
      <trkpt lat="49.9551" lon="6.17667">
        <ele>229</ele>
        <time>2026-08-24T18:12:11+00:00</time>
      </trkpt>
      <trkpt lat="49.95517" lon="6.17666">
        <ele>230</ele>
        <time>2026-08-24T18:12:14+00:00</time>
      </trkpt>
      <trkpt lat="49.95546" lon="6.1766">
        <ele>229</ele>
        <time>2026-08-24T18:12:17+00:00</time>
      </trkpt>
      <trkpt lat="49.95576" lon="6.17654">
        <ele>231</ele>
        <time>2026-08-24T18:12:20+00:00</time>
      </trkpt>
      <trkpt lat="49.95605" lon="6.17649">
        <ele>231</ele>
        <time>2026-08-24T18:12:23+00:00</time>
      </trkpt>
      <trkpt lat="49.95635" lon="6.17643">
        <ele>232</ele>
        <time>2026-08-24T18:12:26+00:00</time>
      </trkpt>
      <trkpt lat="49.95669" lon="6.1764">
        <ele>232</ele>
        <time>2026-08-24T18:12:29+00:00</time>
      </trkpt>
      <trkpt lat="49.95704" lon="6.17636">
        <ele>233</ele>
        <time>2026-08-24T18:12:32+00:00</time>
      </trkpt>
      <trkpt lat="49.95738" lon="6.17633">
        <ele>232</ele>
        <time>2026-08-24T18:12:35+00:00</time>
      </trkpt>
      <trkpt lat="49.958" lon="6.17627">
        <ele>232</ele>
        <time>2026-08-24T18:12:38+00:00</time>
      </trkpt>
      <trkpt lat="49.95825" lon="6.17624">
        <ele>232</ele>
        <time>2026-08-24T18:12:41+00:00</time>
      </trkpt>
      <trkpt lat="49.95838" lon="6.17622">
        <ele>232</ele>
        <time>2026-08-24T18:12:44+00:00</time>
      </trkpt>
      <trkpt lat="49.9586" lon="6.17615">
        <ele>231</ele>
        <time>2026-08-24T18:12:47+00:00</time>
      </trkpt>
      <trkpt lat="49.95895" lon="6.17605">
        <ele>231</ele>
        <time>2026-08-24T18:12:50+00:00</time>
      </trkpt>
      <trkpt lat="49.95921" lon="6.17595">
        <ele>231</ele>
        <time>2026-08-24T18:12:53+00:00</time>
      </trkpt>
      <trkpt lat="49.95966" lon="6.17579">
        <ele>232</ele>
        <time>2026-08-24T18:12:56+00:00</time>
      </trkpt>
      <trkpt lat="49.96007" lon="6.1757">
        <ele>233</ele>
        <time>2026-08-24T18:12:59+00:00</time>
      </trkpt>
      <trkpt lat="49.96042" lon="6.17567">
        <ele>233</ele>
        <time>2026-08-24T18:13:02+00:00</time>
      </trkpt>
      <trkpt lat="49.96068" lon="6.17568">
        <ele>231</ele>
        <time>2026-08-24T18:13:05+00:00</time>
      </trkpt>
      <trkpt lat="49.96108" lon="6.1757">
        <ele>231</ele>
        <time>2026-08-24T18:13:08+00:00</time>
      </trkpt>
      <trkpt lat="49.96136" lon="6.17571">
        <ele>232</ele>
        <time>2026-08-24T18:13:11+00:00</time>
      </trkpt>
      <trkpt lat="49.96147" lon="6.17567">
        <ele>229</ele>
        <time>2026-08-24T18:13:14+00:00</time>
      </trkpt>
      <trkpt lat="49.9615" lon="6.17565">
        <ele>229</ele>
        <time>2026-08-24T18:13:17+00:00</time>
      </trkpt>
      <trkpt lat="49.96164" lon="6.17553">
        <ele>233</ele>
        <time>2026-08-24T18:13:20+00:00</time>
      </trkpt>
      <trkpt lat="49.96176" lon="6.17527">
        <ele>240</ele>
        <time>2026-08-24T18:13:23+00:00</time>
      </trkpt>
      <trkpt lat="49.96183" lon="6.17495">
        <ele>247</ele>
        <time>2026-08-24T18:13:26+00:00</time>
      </trkpt>
      <trkpt lat="49.96189" lon="6.1746">
        <ele>251</ele>
        <time>2026-08-24T18:13:29+00:00</time>
      </trkpt>
      <trkpt lat="49.96197" lon="6.17418">
        <ele>250</ele>
        <time>2026-08-24T18:13:32+00:00</time>
      </trkpt>
      <trkpt lat="49.96203" lon="6.17366">
        <ele>249</ele>
        <time>2026-08-24T18:13:35+00:00</time>
      </trkpt>
      <trkpt lat="49.96204" lon="6.17327">
        <ele>249</ele>
        <time>2026-08-24T18:13:38+00:00</time>
      </trkpt>
      <trkpt lat="49.96206" lon="6.17275">
        <ele>253</ele>
        <time>2026-08-24T18:13:41+00:00</time>
      </trkpt>
      <trkpt lat="49.96214" lon="6.17227">
        <ele>256</ele>
        <time>2026-08-24T18:13:44+00:00</time>
      </trkpt>
      <trkpt lat="49.96225" lon="6.17185">
        <ele>258</ele>
        <time>2026-08-24T18:13:47+00:00</time>
      </trkpt>
      <trkpt lat="49.96236" lon="6.17143">
        <ele>258</ele>
        <time>2026-08-24T18:13:50+00:00</time>
      </trkpt>
      <trkpt lat="49.96247" lon="6.17101">
        <ele>258</ele>
        <time>2026-08-24T18:13:53+00:00</time>
      </trkpt>
      <trkpt lat="49.96254" lon="6.1708">
        <ele>258</ele>
        <time>2026-08-24T18:13:56+00:00</time>
      </trkpt>
      <trkpt lat="49.96265" lon="6.17054">
        <ele>258</ele>
        <time>2026-08-24T18:13:59+00:00</time>
      </trkpt>
      <trkpt lat="49.96267" lon="6.1705">
        <ele>260</ele>
        <time>2026-08-24T18:14:02+00:00</time>
      </trkpt>
      <trkpt lat="49.96282" lon="6.17027">
        <ele>249</ele>
        <time>2026-08-24T18:14:05+00:00</time>
      </trkpt>
      <trkpt lat="49.96299" lon="6.17002">
        <ele>244</ele>
        <time>2026-08-24T18:14:08+00:00</time>
      </trkpt>
      <trkpt lat="49.96299" lon="6.16994">
        <ele>245</ele>
        <time>2026-08-24T18:14:11+00:00</time>
      </trkpt>
      <trkpt lat="49.9631" lon="6.16979">
        <ele>238</ele>
        <time>2026-08-24T18:14:14+00:00</time>
      </trkpt>
      <trkpt lat="49.96324" lon="6.16959">
        <ele>235</ele>
        <time>2026-08-24T18:14:17+00:00</time>
      </trkpt>
      <trkpt lat="49.96322" lon="6.16956">
        <ele>229</ele>
        <time>2026-08-24T18:14:20+00:00</time>
      </trkpt>
      <trkpt lat="49.96304" lon="6.16928">
        <ele>235</ele>
        <time>2026-08-24T18:14:23+00:00</time>
      </trkpt>
      <trkpt lat="49.96302" lon="6.16925">
        <ele>232</ele>
        <time>2026-08-24T18:14:26+00:00</time>
      </trkpt>
      <trkpt lat="49.96286" lon="6.16901">
        <ele>235</ele>
        <time>2026-08-24T18:14:29+00:00</time>
      </trkpt>
      <trkpt lat="49.96268" lon="6.16874">
        <ele>240</ele>
        <time>2026-08-24T18:14:32+00:00</time>
      </trkpt>
      <trkpt lat="49.96251" lon="6.16847">
        <ele>240</ele>
        <time>2026-08-24T18:14:35+00:00</time>
      </trkpt>
      <trkpt lat="49.96231" lon="6.16814">
        <ele>243</ele>
        <time>2026-08-24T18:14:38+00:00</time>
      </trkpt>
      <trkpt lat="49.96209" lon="6.16784">
        <ele>251</ele>
        <time>2026-08-24T18:14:41+00:00</time>
      </trkpt>
      <trkpt lat="49.96187" lon="6.16754">
        <ele>254</ele>
        <time>2026-08-24T18:14:44+00:00</time>
      </trkpt>
      <trkpt lat="49.96165" lon="6.16723">
        <ele>256</ele>
        <time>2026-08-24T18:14:47+00:00</time>
      </trkpt>
      <trkpt lat="49.96153" lon="6.16711">
        <ele>257</ele>
        <time>2026-08-24T18:14:50+00:00</time>
      </trkpt>
      <trkpt lat="49.96131" lon="6.16703">
        <ele>259</ele>
        <time>2026-08-24T18:14:53+00:00</time>
      </trkpt>
      <trkpt lat="49.96131" lon="6.16716">
        <ele>263</ele>
        <time>2026-08-24T18:14:56+00:00</time>
      </trkpt>
      <trkpt lat="49.96143" lon="6.1673">
        <ele>262</ele>
        <time>2026-08-24T18:14:59+00:00</time>
      </trkpt>
      <trkpt lat="49.96164" lon="6.16769">
        <ele>272</ele>
        <time>2026-08-24T18:15:02+00:00</time>
      </trkpt>
      <trkpt lat="49.96171" lon="6.16786">
        <ele>275</ele>
        <time>2026-08-24T18:15:05+00:00</time>
      </trkpt>
      <trkpt lat="49.96179" lon="6.16815">
        <ele>274</ele>
        <time>2026-08-24T18:15:08+00:00</time>
      </trkpt>
      <trkpt lat="49.96192" lon="6.16858">
        <ele>277</ele>
        <time>2026-08-24T18:15:11+00:00</time>
      </trkpt>
      <trkpt lat="49.96202" lon="6.16895">
        <ele>286</ele>
        <time>2026-08-24T18:15:14+00:00</time>
      </trkpt>
      <trkpt lat="49.96217" lon="6.16951">
        <ele>293</ele>
        <time>2026-08-24T18:15:17+00:00</time>
      </trkpt>
      <trkpt lat="49.96217" lon="6.16966">
        <ele>295</ele>
        <time>2026-08-24T18:15:20+00:00</time>
      </trkpt>
      <trkpt lat="49.96209" lon="6.16983">
        <ele>301</ele>
        <time>2026-08-24T18:15:23+00:00</time>
      </trkpt>
      <trkpt lat="49.96203" lon="6.17009">
        <ele>301</ele>
        <time>2026-08-24T18:15:26+00:00</time>
      </trkpt>
      <trkpt lat="49.96199" lon="6.17015">
        <ele>305</ele>
        <time>2026-08-24T18:15:29+00:00</time>
      </trkpt>
      <trkpt lat="49.96187" lon="6.17025">
        <ele>306</ele>
        <time>2026-08-24T18:15:32+00:00</time>
      </trkpt>
      <trkpt lat="49.96159" lon="6.17054">
        <ele>306</ele>
        <time>2026-08-24T18:15:35+00:00</time>
      </trkpt>
      <trkpt lat="49.96153" lon="6.17064">
        <ele>306</ele>
        <time>2026-08-24T18:15:38+00:00</time>
      </trkpt>
      <trkpt lat="49.96154" lon="6.17074">
        <ele>306</ele>
        <time>2026-08-24T18:15:41+00:00</time>
      </trkpt>
      <trkpt lat="49.96159" lon="6.17079">
        <ele>306</ele>
        <time>2026-08-24T18:15:44+00:00</time>
      </trkpt>
      <trkpt lat="49.96161" lon="6.17085">
        <ele>306</ele>
        <time>2026-08-24T18:15:47+00:00</time>
      </trkpt>
      <trkpt lat="49.96161" lon="6.17089">
        <ele>306</ele>
        <time>2026-08-24T18:15:50+00:00</time>
      </trkpt>
      <trkpt lat="49.96154" lon="6.17095">
        <ele>307</ele>
        <time>2026-08-24T18:15:53+00:00</time>
      </trkpt>
      <trkpt lat="49.96147" lon="6.17098">
        <ele>307</ele>
        <time>2026-08-24T18:15:56+00:00</time>
      </trkpt>
      <trkpt lat="49.96143" lon="6.17099">
        <ele>307</ele>
        <time>2026-08-24T18:15:59+00:00</time>
      </trkpt>
      <trkpt lat="49.9614" lon="6.17111">
        <ele>308</ele>
        <time>2026-08-24T18:16:02+00:00</time>
      </trkpt>
      <trkpt lat="49.96134" lon="6.17117">
        <ele>308</ele>
        <time>2026-08-24T18:16:05+00:00</time>
      </trkpt>
      <trkpt lat="49.96128" lon="6.17118">
        <ele>309</ele>
        <time>2026-08-24T18:16:08+00:00</time>
      </trkpt>
      <trkpt lat="49.96123" lon="6.17114">
        <ele>309</ele>
        <time>2026-08-24T18:16:11+00:00</time>
      </trkpt>
      <trkpt lat="49.9611" lon="6.17093">
        <ele>312</ele>
        <time>2026-08-24T18:16:14+00:00</time>
      </trkpt>
      <trkpt lat="49.96113" lon="6.17049">
        <ele>315</ele>
        <time>2026-08-24T18:16:17+00:00</time>
      </trkpt>
      <trkpt lat="49.96116" lon="6.17029">
        <ele>316</ele>
        <time>2026-08-24T18:16:20+00:00</time>
      </trkpt>
      <trkpt lat="49.96121" lon="6.17008">
        <ele>320</ele>
        <time>2026-08-24T18:16:23+00:00</time>
      </trkpt>
      <trkpt lat="49.9613" lon="6.16982">
        <ele>324</ele>
        <time>2026-08-24T18:16:26+00:00</time>
      </trkpt>
      <trkpt lat="49.96147" lon="6.16948">
        <ele>326</ele>
        <time>2026-08-24T18:16:29+00:00</time>
      </trkpt>
      <trkpt lat="49.96147" lon="6.16943">
        <ele>326</ele>
        <time>2026-08-24T18:16:32+00:00</time>
      </trkpt>
      <trkpt lat="49.96146" lon="6.16942">
        <ele>326</ele>
        <time>2026-08-24T18:16:35+00:00</time>
      </trkpt>
      <trkpt lat="49.96144" lon="6.16939">
        <ele>328</ele>
        <time>2026-08-24T18:16:38+00:00</time>
      </trkpt>
      <trkpt lat="49.9614" lon="6.16939">
        <ele>331</ele>
        <time>2026-08-24T18:16:41+00:00</time>
      </trkpt>
      <trkpt lat="49.96124" lon="6.16968">
        <ele>327</ele>
        <time>2026-08-24T18:16:44+00:00</time>
      </trkpt>
      <trkpt lat="49.96113" lon="6.1698">
        <ele>327</ele>
        <time>2026-08-24T18:16:47+00:00</time>
      </trkpt>
      <trkpt lat="49.96101" lon="6.16986">
        <ele>327</ele>
        <time>2026-08-24T18:16:50+00:00</time>
      </trkpt>
      <trkpt lat="49.96077" lon="6.16984">
        <ele>329</ele>
        <time>2026-08-24T18:16:53+00:00</time>
      </trkpt>
      <trkpt lat="49.96055" lon="6.16972">
        <ele>329</ele>
        <time>2026-08-24T18:16:56+00:00</time>
      </trkpt>
      <trkpt lat="49.96031" lon="6.16949">
        <ele>334</ele>
        <time>2026-08-24T18:16:59+00:00</time>
      </trkpt>
      <trkpt lat="49.95985" lon="6.16906">
        <ele>339</ele>
        <time>2026-08-24T18:17:02+00:00</time>
      </trkpt>
      <trkpt lat="49.95957" lon="6.16882">
        <ele>343</ele>
        <time>2026-08-24T18:17:05+00:00</time>
      </trkpt>
      <trkpt lat="49.95944" lon="6.16877">
        <ele>345</ele>
        <time>2026-08-24T18:17:08+00:00</time>
      </trkpt>
      <trkpt lat="49.95924" lon="6.16876">
        <ele>347</ele>
        <time>2026-08-24T18:17:11+00:00</time>
      </trkpt>
      <trkpt lat="49.95897" lon="6.16874">
        <ele>357</ele>
        <time>2026-08-24T18:17:14+00:00</time>
      </trkpt>
      <trkpt lat="49.95879" lon="6.16869">
        <ele>365</ele>
        <time>2026-08-24T18:17:17+00:00</time>
      </trkpt>
      <trkpt lat="49.9585" lon="6.16866">
        <ele>367</ele>
        <time>2026-08-24T18:17:20+00:00</time>
      </trkpt>
      <trkpt lat="49.95829" lon="6.16877">
        <ele>366</ele>
        <time>2026-08-24T18:17:23+00:00</time>
      </trkpt>
      <trkpt lat="49.95815" lon="6.16888">
        <ele>366</ele>
        <time>2026-08-24T18:17:26+00:00</time>
      </trkpt>
      <trkpt lat="49.95814" lon="6.16889">
        <ele>366</ele>
        <time>2026-08-24T18:17:29+00:00</time>
      </trkpt>
      <trkpt lat="49.95808" lon="6.16887">
        <ele>366</ele>
        <time>2026-08-24T18:17:32+00:00</time>
      </trkpt>
      <trkpt lat="49.95808" lon="6.16882">
        <ele>366</ele>
        <time>2026-08-24T18:17:35+00:00</time>
      </trkpt>
      <trkpt lat="49.95809" lon="6.16877">
        <ele>369</ele>
        <time>2026-08-24T18:17:38+00:00</time>
      </trkpt>
      <trkpt lat="49.95835" lon="6.16855">
        <ele>368</ele>
        <time>2026-08-24T18:17:41+00:00</time>
      </trkpt>
      <trkpt lat="49.95866" lon="6.16837">
        <ele>371</ele>
        <time>2026-08-24T18:17:44+00:00</time>
      </trkpt>
      <trkpt lat="49.95872" lon="6.16829">
        <ele>366</ele>
        <time>2026-08-24T18:17:47+00:00</time>
      </trkpt>
      <trkpt lat="49.95874" lon="6.1682">
        <ele>366</ele>
        <time>2026-08-24T18:17:50+00:00</time>
      </trkpt>
      <trkpt lat="49.95851" lon="6.16811">
        <ele>373</ele>
        <time>2026-08-24T18:17:53+00:00</time>
      </trkpt>
      <trkpt lat="49.95841" lon="6.16803">
        <ele>375</ele>
        <time>2026-08-24T18:17:56+00:00</time>
      </trkpt>
      <trkpt lat="49.95826" lon="6.16791">
        <ele>379</ele>
        <time>2026-08-24T18:17:59+00:00</time>
      </trkpt>
      <trkpt lat="49.95818" lon="6.16779">
        <ele>380</ele>
        <time>2026-08-24T18:18:02+00:00</time>
      </trkpt>
      <trkpt lat="49.95806" lon="6.16765">
        <ele>382</ele>
        <time>2026-08-24T18:18:05+00:00</time>
      </trkpt>
      <trkpt lat="49.95788" lon="6.16742">
        <ele>385</ele>
        <time>2026-08-24T18:18:08+00:00</time>
      </trkpt>
      <trkpt lat="49.95765" lon="6.16713">
        <ele>389</ele>
        <time>2026-08-24T18:18:11+00:00</time>
      </trkpt>
      <trkpt lat="49.95743" lon="6.16684">
        <ele>392</ele>
        <time>2026-08-24T18:18:14+00:00</time>
      </trkpt>
      <trkpt lat="49.95718" lon="6.16652">
        <ele>392</ele>
        <time>2026-08-24T18:18:17+00:00</time>
      </trkpt>
      <trkpt lat="49.95704" lon="6.16632">
        <ele>392</ele>
        <time>2026-08-24T18:18:20+00:00</time>
      </trkpt>
      <trkpt lat="49.95698" lon="6.16619">
        <ele>393</ele>
        <time>2026-08-24T18:18:23+00:00</time>
      </trkpt>
      <trkpt lat="49.95689" lon="6.16594">
        <ele>394</ele>
        <time>2026-08-24T18:18:26+00:00</time>
      </trkpt>
      <trkpt lat="49.95679" lon="6.16566">
        <ele>397</ele>
        <time>2026-08-24T18:18:29+00:00</time>
      </trkpt>
      <trkpt lat="49.95666" lon="6.16541">
        <ele>400</ele>
        <time>2026-08-24T18:18:32+00:00</time>
      </trkpt>
      <trkpt lat="49.95643" lon="6.16508">
        <ele>402</ele>
        <time>2026-08-24T18:18:35+00:00</time>
      </trkpt>
      <trkpt lat="49.95618" lon="6.16484">
        <ele>404</ele>
        <time>2026-08-24T18:18:38+00:00</time>
      </trkpt>
      <trkpt lat="49.95592" lon="6.16459">
        <ele>404</ele>
        <time>2026-08-24T18:18:41+00:00</time>
      </trkpt>
      <trkpt lat="49.95562" lon="6.1643">
        <ele>404</ele>
        <time>2026-08-24T18:18:44+00:00</time>
      </trkpt>
      <trkpt lat="49.95539" lon="6.16415">
        <ele>405</ele>
        <time>2026-08-24T18:18:47+00:00</time>
      </trkpt>
      <trkpt lat="49.95506" lon="6.16394">
        <ele>409</ele>
        <time>2026-08-24T18:18:50+00:00</time>
      </trkpt>
      <trkpt lat="49.95496" lon="6.16391">
        <ele>409</ele>
        <time>2026-08-24T18:18:53+00:00</time>
      </trkpt>
      <trkpt lat="49.95478" lon="6.16375">
        <ele>410</ele>
        <time>2026-08-24T18:18:56+00:00</time>
      </trkpt>
      <trkpt lat="49.95459" lon="6.16351">
        <ele>411</ele>
        <time>2026-08-24T18:18:59+00:00</time>
      </trkpt>
      <trkpt lat="49.95435" lon="6.16319">
        <ele>415</ele>
        <time>2026-08-24T18:19:02+00:00</time>
      </trkpt>
      <trkpt lat="49.95413" lon="6.16316">
        <ele>419</ele>
        <time>2026-08-24T18:19:05+00:00</time>
      </trkpt>
      <trkpt lat="49.95391" lon="6.16313">
        <ele>422</ele>
        <time>2026-08-24T18:19:08+00:00</time>
      </trkpt>
      <trkpt lat="49.95352" lon="6.16308">
        <ele>426</ele>
        <time>2026-08-24T18:19:11+00:00</time>
      </trkpt>
      <trkpt lat="49.95319" lon="6.16289">
        <ele>426</ele>
        <time>2026-08-24T18:19:14+00:00</time>
      </trkpt>
      <trkpt lat="49.95298" lon="6.16311">
        <ele>427</ele>
        <time>2026-08-24T18:19:17+00:00</time>
      </trkpt>
      <trkpt lat="49.95272" lon="6.1634">
        <ele>427</ele>
        <time>2026-08-24T18:19:20+00:00</time>
      </trkpt>
      <trkpt lat="49.95249" lon="6.16357">
        <ele>429</ele>
        <time>2026-08-24T18:19:23+00:00</time>
      </trkpt>
      <trkpt lat="49.95213" lon="6.16383">
        <ele>438</ele>
        <time>2026-08-24T18:19:26+00:00</time>
      </trkpt>
      <trkpt lat="49.95187" lon="6.16357">
        <ele>443</ele>
        <time>2026-08-24T18:19:29+00:00</time>
      </trkpt>
      <trkpt lat="49.95162" lon="6.16332">
        <ele>446</ele>
        <time>2026-08-24T18:19:32+00:00</time>
      </trkpt>
      <trkpt lat="49.95127" lon="6.16297">
        <ele>449</ele>
        <time>2026-08-24T18:19:35+00:00</time>
      </trkpt>
      <trkpt lat="49.95105" lon="6.16264">
        <ele>456</ele>
        <time>2026-08-24T18:19:38+00:00</time>
      </trkpt>
      <trkpt lat="49.95072" lon="6.16243">
        <ele>465</ele>
        <time>2026-08-24T18:19:41+00:00</time>
      </trkpt>
      <trkpt lat="49.95044" lon="6.16264">
        <ele>462</ele>
        <time>2026-08-24T18:19:44+00:00</time>
      </trkpt>
      <trkpt lat="49.95044" lon="6.16312">
        <ele>459</ele>
        <time>2026-08-24T18:19:47+00:00</time>
      </trkpt>
      <trkpt lat="49.95045" lon="6.16351">
        <ele>454</ele>
        <time>2026-08-24T18:19:50+00:00</time>
      </trkpt>
      <trkpt lat="49.95046" lon="6.16404">
        <ele>444</ele>
        <time>2026-08-24T18:19:53+00:00</time>
      </trkpt>
      <trkpt lat="49.95055" lon="6.16452">
        <ele>424</ele>
        <time>2026-08-24T18:19:56+00:00</time>
      </trkpt>
      <trkpt lat="49.95048" lon="6.16477">
        <ele>420</ele>
        <time>2026-08-24T18:19:59+00:00</time>
      </trkpt>
      <trkpt lat="49.95024" lon="6.165">
        <ele>418</ele>
        <time>2026-08-24T18:20:02+00:00</time>
      </trkpt>
      <trkpt lat="49.94977" lon="6.16544">
        <ele>420</ele>
        <time>2026-08-24T18:20:05+00:00</time>
      </trkpt>
      <trkpt lat="49.94936" lon="6.16548">
        <ele>422</ele>
        <time>2026-08-24T18:20:08+00:00</time>
      </trkpt>
      <trkpt lat="49.94904" lon="6.1655">
        <ele>422</ele>
        <time>2026-08-24T18:20:11+00:00</time>
      </trkpt>
      <trkpt lat="49.94882" lon="6.1656">
        <ele>422</ele>
        <time>2026-08-24T18:20:14+00:00</time>
      </trkpt>
      <trkpt lat="49.94856" lon="6.16572">
        <ele>423</ele>
        <time>2026-08-24T18:20:17+00:00</time>
      </trkpt>
      <trkpt lat="49.94847" lon="6.16631">
        <ele>418</ele>
        <time>2026-08-24T18:20:20+00:00</time>
      </trkpt>
      <trkpt lat="49.94873" lon="6.16655">
        <ele>413</ele>
        <time>2026-08-24T18:20:23+00:00</time>
      </trkpt>
      <trkpt lat="49.949" lon="6.16679">
        <ele>407</ele>
        <time>2026-08-24T18:20:26+00:00</time>
      </trkpt>
      <trkpt lat="49.94937" lon="6.16712">
        <ele>409</ele>
        <time>2026-08-24T18:20:29+00:00</time>
      </trkpt>
      <trkpt lat="49.94913" lon="6.1671">
        <ele>412</ele>
        <time>2026-08-24T18:20:32+00:00</time>
      </trkpt>
      <trkpt lat="49.94883" lon="6.16708">
        <ele>419</ele>
        <time>2026-08-24T18:20:35+00:00</time>
      </trkpt>
      <trkpt lat="49.94856" lon="6.16698">
        <ele>429</ele>
        <time>2026-08-24T18:20:38+00:00</time>
      </trkpt>
      <trkpt lat="49.94806" lon="6.1668">
        <ele>447</ele>
        <time>2026-08-24T18:20:41+00:00</time>
      </trkpt>
      <trkpt lat="49.9477" lon="6.16668">
        <ele>456</ele>
        <time>2026-08-24T18:20:44+00:00</time>
      </trkpt>
      <trkpt lat="49.94754" lon="6.16622">
        <ele>466</ele>
        <time>2026-08-24T18:20:47+00:00</time>
      </trkpt>
      <trkpt lat="49.94758" lon="6.16574">
        <ele>472</ele>
        <time>2026-08-24T18:20:50+00:00</time>
      </trkpt>
      <trkpt lat="49.9477" lon="6.16529">
        <ele>472</ele>
        <time>2026-08-24T18:20:53+00:00</time>
      </trkpt>
      <trkpt lat="49.94761" lon="6.16484">
        <ele>479</ele>
        <time>2026-08-24T18:20:56+00:00</time>
      </trkpt>
      <trkpt lat="49.94752" lon="6.1644">
        <ele>483</ele>
        <time>2026-08-24T18:20:59+00:00</time>
      </trkpt>
      <trkpt lat="49.9474" lon="6.16383">
        <ele>487</ele>
        <time>2026-08-24T18:21:02+00:00</time>
      </trkpt>
      <trkpt lat="49.94736" lon="6.16419">
        <ele>488</ele>
        <time>2026-08-24T18:21:05+00:00</time>
      </trkpt>
      <trkpt lat="49.94731" lon="6.1646">
        <ele>490</ele>
        <time>2026-08-24T18:21:08+00:00</time>
      </trkpt>
      <trkpt lat="49.94714" lon="6.16452">
        <ele>493</ele>
        <time>2026-08-24T18:21:11+00:00</time>
      </trkpt>
      <trkpt lat="49.94707" lon="6.16482">
        <ele>490</ele>
        <time>2026-08-24T18:21:14+00:00</time>
      </trkpt>
      <trkpt lat="49.94695" lon="6.16531">
        <ele>490</ele>
        <time>2026-08-24T18:21:17+00:00</time>
      </trkpt>
      <trkpt lat="49.9469" lon="6.16577">
        <ele>490</ele>
        <time>2026-08-24T18:21:20+00:00</time>
      </trkpt>
      <trkpt lat="49.94685" lon="6.16623">
        <ele>490</ele>
        <time>2026-08-24T18:21:23+00:00</time>
      </trkpt>
      <trkpt lat="49.9468" lon="6.16681">
        <ele>491</ele>
        <time>2026-08-24T18:21:26+00:00</time>
      </trkpt>
      <trkpt lat="49.9469" lon="6.16715">
        <ele>492</ele>
        <time>2026-08-24T18:21:29+00:00</time>
      </trkpt>
      <trkpt lat="49.94703" lon="6.16758">
        <ele>492</ele>
        <time>2026-08-24T18:21:32+00:00</time>
      </trkpt>
      <trkpt lat="49.94733" lon="6.16791">
        <ele>493</ele>
        <time>2026-08-24T18:21:35+00:00</time>
      </trkpt>
      <trkpt lat="49.94763" lon="6.16824">
        <ele>493</ele>
        <time>2026-08-24T18:21:38+00:00</time>
      </trkpt>
      <trkpt lat="49.94793" lon="6.16857">
        <ele>493</ele>
        <time>2026-08-24T18:21:41+00:00</time>
      </trkpt>
      <trkpt lat="49.94823" lon="6.1689">
        <ele>493</ele>
        <time>2026-08-24T18:21:44+00:00</time>
      </trkpt>
      <trkpt lat="49.94853" lon="6.16923">
        <ele>491</ele>
        <time>2026-08-24T18:21:47+00:00</time>
      </trkpt>
      <trkpt lat="49.94905" lon="6.1698">
        <ele>489</ele>
        <time>2026-08-24T18:21:50+00:00</time>
      </trkpt>
      <trkpt lat="49.9491" lon="6.17017">
        <ele>489</ele>
        <time>2026-08-24T18:21:53+00:00</time>
      </trkpt>
      <trkpt lat="49.94918" lon="6.17067">
        <ele>489</ele>
        <time>2026-08-24T18:21:56+00:00</time>
      </trkpt>
      <trkpt lat="49.94917" lon="6.17106">
        <ele>489</ele>
        <time>2026-08-24T18:21:59+00:00</time>
      </trkpt>
      <trkpt lat="49.94915" lon="6.1716">
        <ele>489</ele>
        <time>2026-08-24T18:22:02+00:00</time>
      </trkpt>
      <trkpt lat="49.949" lon="6.17199">
        <ele>489</ele>
        <time>2026-08-24T18:22:05+00:00</time>
      </trkpt>
      <trkpt lat="49.94886" lon="6.17239">
        <ele>491</ele>
        <time>2026-08-24T18:22:08+00:00</time>
      </trkpt>
      <trkpt lat="49.94871" lon="6.17283">
        <ele>492</ele>
        <time>2026-08-24T18:22:11+00:00</time>
      </trkpt>
      <trkpt lat="49.94854" lon="6.17326">
        <ele>494</ele>
        <time>2026-08-24T18:22:14+00:00</time>
      </trkpt>
      <trkpt lat="49.94837" lon="6.17369">
        <ele>494</ele>
        <time>2026-08-24T18:22:17+00:00</time>
      </trkpt>
      <trkpt lat="49.9482" lon="6.17413">
        <ele>494</ele>
        <time>2026-08-24T18:22:20+00:00</time>
      </trkpt>
      <trkpt lat="49.94803" lon="6.17458">
        <ele>496</ele>
        <time>2026-08-24T18:22:23+00:00</time>
      </trkpt>
      <trkpt lat="49.9479" lon="6.17502">
        <ele>497</ele>
        <time>2026-08-24T18:22:26+00:00</time>
      </trkpt>
      <trkpt lat="49.94777" lon="6.17546">
        <ele>498</ele>
        <time>2026-08-24T18:22:29+00:00</time>
      </trkpt>
      <trkpt lat="49.94754" lon="6.17621">
        <ele>501</ele>
        <time>2026-08-24T18:22:32+00:00</time>
      </trkpt>
      <trkpt lat="49.94743" lon="6.17667">
        <ele>501</ele>
        <time>2026-08-24T18:22:35+00:00</time>
      </trkpt>
      <trkpt lat="49.94732" lon="6.17712">
        <ele>500</ele>
        <time>2026-08-24T18:22:38+00:00</time>
      </trkpt>
      <trkpt lat="49.94714" lon="6.17786">
        <ele>499</ele>
        <time>2026-08-24T18:22:41+00:00</time>
      </trkpt>
      <trkpt lat="49.94704" lon="6.1782">
        <ele>498</ele>
        <time>2026-08-24T18:22:44+00:00</time>
      </trkpt>
      <trkpt lat="49.94691" lon="6.17866">
        <ele>497</ele>
        <time>2026-08-24T18:22:47+00:00</time>
      </trkpt>
      <trkpt lat="49.94705" lon="6.17913">
        <ele>495</ele>
        <time>2026-08-24T18:22:50+00:00</time>
      </trkpt>
      <trkpt lat="49.94695" lon="6.17974">
        <ele>492</ele>
        <time>2026-08-24T18:22:53+00:00</time>
      </trkpt>
      <trkpt lat="49.9469" lon="6.18011">
        <ele>491</ele>
        <time>2026-08-24T18:22:56+00:00</time>
      </trkpt>
      <trkpt lat="49.94704" lon="6.18042">
        <ele>490</ele>
        <time>2026-08-24T18:22:59+00:00</time>
      </trkpt>
      <trkpt lat="49.94724" lon="6.18084">
        <ele>490</ele>
        <time>2026-08-24T18:23:02+00:00</time>
      </trkpt>
      <trkpt lat="49.94693" lon="6.18098">
        <ele>491</ele>
        <time>2026-08-24T18:23:05+00:00</time>
      </trkpt>
      <trkpt lat="49.94665" lon="6.18072">
        <ele>493</ele>
        <time>2026-08-24T18:23:08+00:00</time>
      </trkpt>
      <trkpt lat="49.94637" lon="6.18047">
        <ele>494</ele>
        <time>2026-08-24T18:23:11+00:00</time>
      </trkpt>
      <trkpt lat="49.94581" lon="6.17998">
        <ele>494</ele>
        <time>2026-08-24T18:23:14+00:00</time>
      </trkpt>
      <trkpt lat="49.94551" lon="6.17994">
        <ele>495</ele>
        <time>2026-08-24T18:23:17+00:00</time>
      </trkpt>
      <trkpt lat="49.94522" lon="6.1799">
        <ele>496</ele>
        <time>2026-08-24T18:23:20+00:00</time>
      </trkpt>
      <trkpt lat="49.94489" lon="6.17985">
        <ele>496</ele>
        <time>2026-08-24T18:23:23+00:00</time>
      </trkpt>
      <trkpt lat="49.94465" lon="6.17971">
        <ele>493</ele>
        <time>2026-08-24T18:23:26+00:00</time>
      </trkpt>
      <trkpt lat="49.94429" lon="6.17949">
        <ele>488</ele>
        <time>2026-08-24T18:23:29+00:00</time>
      </trkpt>
      <trkpt lat="49.94413" lon="6.17921">
        <ele>487</ele>
        <time>2026-08-24T18:23:32+00:00</time>
      </trkpt>
      <trkpt lat="49.94393" lon="6.17885">
        <ele>487</ele>
        <time>2026-08-24T18:23:35+00:00</time>
      </trkpt>
      <trkpt lat="49.94366" lon="6.17853">
        <ele>485</ele>
        <time>2026-08-24T18:23:38+00:00</time>
      </trkpt>
      <trkpt lat="49.9434" lon="6.17821">
        <ele>483</ele>
        <time>2026-08-24T18:23:41+00:00</time>
      </trkpt>
      <trkpt lat="49.94314" lon="6.17789">
        <ele>481</ele>
        <time>2026-08-24T18:23:44+00:00</time>
      </trkpt>
      <trkpt lat="49.94278" lon="6.17745">
        <ele>483</ele>
        <time>2026-08-24T18:23:47+00:00</time>
      </trkpt>
      <trkpt lat="49.94248" lon="6.1775">
        <ele>486</ele>
        <time>2026-08-24T18:23:50+00:00</time>
      </trkpt>
      <trkpt lat="49.94219" lon="6.17755">
        <ele>489</ele>
        <time>2026-08-24T18:23:53+00:00</time>
      </trkpt>
      <trkpt lat="49.94185" lon="6.17761">
        <ele>490</ele>
        <time>2026-08-24T18:23:56+00:00</time>
      </trkpt>
      <trkpt lat="49.94177" lon="6.17805">
        <ele>490</ele>
        <time>2026-08-24T18:23:59+00:00</time>
      </trkpt>
      <trkpt lat="49.9417" lon="6.1785">
        <ele>486</ele>
        <time>2026-08-24T18:24:02+00:00</time>
      </trkpt>
      <trkpt lat="49.94161" lon="6.17905">
        <ele>485</ele>
        <time>2026-08-24T18:24:05+00:00</time>
      </trkpt>
      <trkpt lat="49.94156" lon="6.1795">
        <ele>485</ele>
        <time>2026-08-24T18:24:08+00:00</time>
      </trkpt>
      <trkpt lat="49.94152" lon="6.17995">
        <ele>485</ele>
        <time>2026-08-24T18:24:11+00:00</time>
      </trkpt>
      <trkpt lat="49.94147" lon="6.18046">
        <ele>485</ele>
        <time>2026-08-24T18:24:14+00:00</time>
      </trkpt>
      <trkpt lat="49.9415" lon="6.18091">
        <ele>485</ele>
        <time>2026-08-24T18:24:17+00:00</time>
      </trkpt>
      <trkpt lat="49.94156" lon="6.18178">
        <ele>474</ele>
        <time>2026-08-24T18:24:20+00:00</time>
      </trkpt>
      <trkpt lat="49.94154" lon="6.18213">
        <ele>464</ele>
        <time>2026-08-24T18:24:23+00:00</time>
      </trkpt>
      <trkpt lat="49.94153" lon="6.18251">
        <ele>462</ele>
        <time>2026-08-24T18:24:26+00:00</time>
      </trkpt>
      <trkpt lat="49.94147" lon="6.1829">
        <ele>461</ele>
        <time>2026-08-24T18:24:29+00:00</time>
      </trkpt>
      <trkpt lat="49.94131" lon="6.18312">
        <ele>460</ele>
        <time>2026-08-24T18:24:32+00:00</time>
      </trkpt>
      <trkpt lat="49.94108" lon="6.18289">
        <ele>460</ele>
        <time>2026-08-24T18:24:35+00:00</time>
      </trkpt>
      <trkpt lat="49.94066" lon="6.18248">
        <ele>469</ele>
        <time>2026-08-24T18:24:38+00:00</time>
      </trkpt>
      <trkpt lat="49.94026" lon="6.18231">
        <ele>477</ele>
        <time>2026-08-24T18:24:41+00:00</time>
      </trkpt>
      <trkpt lat="49.93999" lon="6.18264">
        <ele>480</ele>
        <time>2026-08-24T18:24:44+00:00</time>
      </trkpt>
      <trkpt lat="49.93985" lon="6.18308">
        <ele>478</ele>
        <time>2026-08-24T18:24:47+00:00</time>
      </trkpt>
      <trkpt lat="49.93971" lon="6.18352">
        <ele>477</ele>
        <time>2026-08-24T18:24:50+00:00</time>
      </trkpt>
      <trkpt lat="49.93947" lon="6.18427">
        <ele>476</ele>
        <time>2026-08-24T18:24:53+00:00</time>
      </trkpt>
      <trkpt lat="49.93935" lon="6.18472">
        <ele>473</ele>
        <time>2026-08-24T18:24:56+00:00</time>
      </trkpt>
      <trkpt lat="49.93922" lon="6.18517">
        <ele>472</ele>
        <time>2026-08-24T18:24:59+00:00</time>
      </trkpt>
      <trkpt lat="49.93902" lon="6.18591">
        <ele>472</ele>
        <time>2026-08-24T18:25:02+00:00</time>
      </trkpt>
      <trkpt lat="49.93907" lon="6.18643">
        <ele>470</ele>
        <time>2026-08-24T18:25:05+00:00</time>
      </trkpt>
      <trkpt lat="49.93913" lon="6.18695">
        <ele>468</ele>
        <time>2026-08-24T18:25:08+00:00</time>
      </trkpt>
      <trkpt lat="49.93918" lon="6.18748">
        <ele>468</ele>
        <time>2026-08-24T18:25:11+00:00</time>
      </trkpt>
      <trkpt lat="49.93928" lon="6.18833">
        <ele>467</ele>
        <time>2026-08-24T18:25:14+00:00</time>
      </trkpt>
      <trkpt lat="49.93929" lon="6.18876">
        <ele>466</ele>
        <time>2026-08-24T18:25:17+00:00</time>
      </trkpt>
      <trkpt lat="49.93932" lon="6.1895">
        <ele>458</ele>
        <time>2026-08-24T18:25:20+00:00</time>
      </trkpt>
      <trkpt lat="49.93949" lon="6.18988">
        <ele>455</ele>
        <time>2026-08-24T18:25:23+00:00</time>
      </trkpt>
      <trkpt lat="49.93967" lon="6.19026">
        <ele>447</ele>
        <time>2026-08-24T18:25:26+00:00</time>
      </trkpt>
      <trkpt lat="49.93991" lon="6.19079">
        <ele>443</ele>
        <time>2026-08-24T18:25:29+00:00</time>
      </trkpt>
      <trkpt lat="49.93993" lon="6.19122">
        <ele>447</ele>
        <time>2026-08-24T18:25:32+00:00</time>
      </trkpt>
      <trkpt lat="49.93997" lon="6.192">
        <ele>451</ele>
        <time>2026-08-24T18:25:35+00:00</time>
      </trkpt>
      <trkpt lat="49.93999" lon="6.19239">
        <ele>449</ele>
        <time>2026-08-24T18:25:38+00:00</time>
      </trkpt>
      <trkpt lat="49.94002" lon="6.19292">
        <ele>448</ele>
        <time>2026-08-24T18:25:41+00:00</time>
      </trkpt>
      <trkpt lat="49.9402" lon="6.19326">
        <ele>444</ele>
        <time>2026-08-24T18:25:44+00:00</time>
      </trkpt>
      <trkpt lat="49.94052" lon="6.19388">
        <ele>441</ele>
        <time>2026-08-24T18:25:47+00:00</time>
      </trkpt>
      <trkpt lat="49.94068" lon="6.19422">
        <ele>439</ele>
        <time>2026-08-24T18:25:50+00:00</time>
      </trkpt>
      <trkpt lat="49.94095" lon="6.19477">
        <ele>439</ele>
        <time>2026-08-24T18:25:53+00:00</time>
      </trkpt>
      <trkpt lat="49.94099" lon="6.19531">
        <ele>440</ele>
        <time>2026-08-24T18:25:56+00:00</time>
      </trkpt>
      <trkpt lat="49.94093" lon="6.19578">
        <ele>442</ele>
        <time>2026-08-24T18:25:59+00:00</time>
      </trkpt>
      <trkpt lat="49.94087" lon="6.19625">
        <ele>438</ele>
        <time>2026-08-24T18:26:02+00:00</time>
      </trkpt>
      <trkpt lat="49.94077" lon="6.19695">
        <ele>435</ele>
        <time>2026-08-24T18:26:05+00:00</time>
      </trkpt>
      <trkpt lat="49.9406" lon="6.19728">
        <ele>434</ele>
        <time>2026-08-24T18:26:08+00:00</time>
      </trkpt>
      <trkpt lat="49.94032" lon="6.19783">
        <ele>432</ele>
        <time>2026-08-24T18:26:11+00:00</time>
      </trkpt>
      <trkpt lat="49.94001" lon="6.19789">
        <ele>432</ele>
        <time>2026-08-24T18:26:14+00:00</time>
      </trkpt>
      <trkpt lat="49.9397" lon="6.19795">
        <ele>432</ele>
        <time>2026-08-24T18:26:17+00:00</time>
      </trkpt>
      <trkpt lat="49.93922" lon="6.19805">
        <ele>433</ele>
        <time>2026-08-24T18:26:20+00:00</time>
      </trkpt>
      <trkpt lat="49.9389" lon="6.19839">
        <ele>431</ele>
        <time>2026-08-24T18:26:23+00:00</time>
      </trkpt>
      <trkpt lat="49.93852" lon="6.19869">
        <ele>429</ele>
        <time>2026-08-24T18:26:26+00:00</time>
      </trkpt>
      <trkpt lat="49.9382" lon="6.19846">
        <ele>426</ele>
        <time>2026-08-24T18:26:29+00:00</time>
      </trkpt>
      <trkpt lat="49.93823" lon="6.19856">
        <ele>426</ele>
        <time>2026-08-24T18:26:32+00:00</time>
      </trkpt>
      <trkpt lat="49.93827" lon="6.19861">
        <ele>426</ele>
        <time>2026-08-24T18:26:35+00:00</time>
      </trkpt>
      <trkpt lat="49.93825" lon="6.19874">
        <ele>426</ele>
        <time>2026-08-24T18:26:38+00:00</time>
      </trkpt>
      <trkpt lat="49.93825" lon="6.19874">
        <ele>426</ele>
        <time>2026-08-24T18:26:41+00:00</time>
      </trkpt>
      <trkpt lat="49.93825" lon="6.19898">
        <ele>425</ele>
        <time>2026-08-24T18:26:44+00:00</time>
      </trkpt>
      <trkpt lat="49.9382" lon="6.19923">
        <ele>423</ele>
        <time>2026-08-24T18:26:47+00:00</time>
      </trkpt>
      <trkpt lat="49.93811" lon="6.19944">
        <ele>420</ele>
        <time>2026-08-24T18:26:50+00:00</time>
      </trkpt>
      <trkpt lat="49.93801" lon="6.19959">
        <ele>418</ele>
        <time>2026-08-24T18:26:53+00:00</time>
      </trkpt>
      <trkpt lat="49.9379" lon="6.19975">
        <ele>412</ele>
        <time>2026-08-24T18:26:56+00:00</time>
      </trkpt>
      <trkpt lat="49.93782" lon="6.19983">
        <ele>411</ele>
        <time>2026-08-24T18:26:59+00:00</time>
      </trkpt>
      <trkpt lat="49.93781" lon="6.19986">
        <ele>411</ele>
        <time>2026-08-24T18:27:02+00:00</time>
      </trkpt>
      <trkpt lat="49.93785" lon="6.19996">
        <ele>411</ele>
        <time>2026-08-24T18:27:05+00:00</time>
      </trkpt>
      <trkpt lat="49.93792" lon="6.19999">
        <ele>410</ele>
        <time>2026-08-24T18:27:08+00:00</time>
      </trkpt>
      <trkpt lat="49.93819" lon="6.19996">
        <ele>410</ele>
        <time>2026-08-24T18:27:11+00:00</time>
      </trkpt>
      <trkpt lat="49.93812" lon="6.20009">
        <ele>407</ele>
        <time>2026-08-24T18:27:14+00:00</time>
      </trkpt>
      <trkpt lat="49.93817" lon="6.2001">
        <ele>407</ele>
        <time>2026-08-24T18:27:17+00:00</time>
      </trkpt>
      <trkpt lat="49.93819" lon="6.20011">
        <ele>402</ele>
        <time>2026-08-24T18:27:20+00:00</time>
      </trkpt>
      <trkpt lat="49.93812" lon="6.2002">
        <ele>402</ele>
        <time>2026-08-24T18:27:23+00:00</time>
      </trkpt>
      <trkpt lat="49.93825" lon="6.20024">
        <ele>399</ele>
        <time>2026-08-24T18:27:26+00:00</time>
      </trkpt>
      <trkpt lat="49.93812" lon="6.2004">
        <ele>395</ele>
        <time>2026-08-24T18:27:29+00:00</time>
      </trkpt>
      <trkpt lat="49.93823" lon="6.20044">
        <ele>392</ele>
        <time>2026-08-24T18:27:32+00:00</time>
      </trkpt>
      <trkpt lat="49.93791" lon="6.20066">
        <ele>390</ele>
        <time>2026-08-24T18:27:35+00:00</time>
      </trkpt>
      <trkpt lat="49.93788" lon="6.20068">
        <ele>384</ele>
        <time>2026-08-24T18:27:38+00:00</time>
      </trkpt>
      <trkpt lat="49.93783" lon="6.20065">
        <ele>384</ele>
        <time>2026-08-24T18:27:41+00:00</time>
      </trkpt>
      <trkpt lat="49.93774" lon="6.20055">
        <ele>388</ele>
        <time>2026-08-24T18:27:44+00:00</time>
      </trkpt>
      <trkpt lat="49.93771" lon="6.20044">
        <ele>391</ele>
        <time>2026-08-24T18:27:47+00:00</time>
      </trkpt>
      <trkpt lat="49.93768" lon="6.20051">
        <ele>386</ele>
        <time>2026-08-24T18:27:50+00:00</time>
      </trkpt>
      <trkpt lat="49.93762" lon="6.20056">
        <ele>386</ele>
        <time>2026-08-24T18:27:53+00:00</time>
      </trkpt>
      <trkpt lat="49.93749" lon="6.20058">
        <ele>375</ele>
        <time>2026-08-24T18:27:56+00:00</time>
      </trkpt>
      <trkpt lat="49.93742" lon="6.20062">
        <ele>373</ele>
        <time>2026-08-24T18:27:59+00:00</time>
      </trkpt>
      <trkpt lat="49.93733" lon="6.20068">
        <ele>370</ele>
        <time>2026-08-24T18:28:02+00:00</time>
      </trkpt>
      <trkpt lat="49.93733" lon="6.20068">
        <ele>370</ele>
        <time>2026-08-24T18:28:05+00:00</time>
      </trkpt>
      <trkpt lat="49.93723" lon="6.20068">
        <ele>366</ele>
        <time>2026-08-24T18:28:08+00:00</time>
      </trkpt>
      <trkpt lat="49.9372" lon="6.2007">
        <ele>364</ele>
        <time>2026-08-24T18:28:11+00:00</time>
      </trkpt>
      <trkpt lat="49.9372" lon="6.20078">
        <ele>362</ele>
        <time>2026-08-24T18:28:14+00:00</time>
      </trkpt>
      <trkpt lat="49.93723" lon="6.20087">
        <ele>362</ele>
        <time>2026-08-24T18:28:17+00:00</time>
      </trkpt>
      <trkpt lat="49.93724" lon="6.2009">
        <ele>362</ele>
        <time>2026-08-24T18:28:20+00:00</time>
      </trkpt>
      <trkpt lat="49.93721" lon="6.20091">
        <ele>364</ele>
        <time>2026-08-24T18:28:23+00:00</time>
      </trkpt>
      <trkpt lat="49.93719" lon="6.20093">
        <ele>359</ele>
        <time>2026-08-24T18:28:26+00:00</time>
      </trkpt>
      <trkpt lat="49.93714" lon="6.20098">
        <ele>359</ele>
        <time>2026-08-24T18:28:29+00:00</time>
      </trkpt>
      <trkpt lat="49.93714" lon="6.20097">
        <ele>359</ele>
        <time>2026-08-24T18:28:32+00:00</time>
      </trkpt>
      <trkpt lat="49.93708" lon="6.20079">
        <ele>362</ele>
        <time>2026-08-24T18:28:35+00:00</time>
      </trkpt>
      <trkpt lat="49.93705" lon="6.20078">
        <ele>362</ele>
        <time>2026-08-24T18:28:38+00:00</time>
      </trkpt>
      <trkpt lat="49.93704" lon="6.20081">
        <ele>360</ele>
        <time>2026-08-24T18:28:41+00:00</time>
      </trkpt>
      <trkpt lat="49.93703" lon="6.20106">
        <ele>355</ele>
        <time>2026-08-24T18:28:44+00:00</time>
      </trkpt>
      <trkpt lat="49.93688" lon="6.20089">
        <ele>352</ele>
        <time>2026-08-24T18:28:47+00:00</time>
      </trkpt>
      <trkpt lat="49.93683" lon="6.20087">
        <ele>352</ele>
        <time>2026-08-24T18:28:50+00:00</time>
      </trkpt>
      <trkpt lat="49.93684" lon="6.20102">
        <ele>348</ele>
        <time>2026-08-24T18:28:53+00:00</time>
      </trkpt>
      <trkpt lat="49.93687" lon="6.2011">
        <ele>348</ele>
        <time>2026-08-24T18:28:56+00:00</time>
      </trkpt>
      <trkpt lat="49.93685" lon="6.20112">
        <ele>345</ele>
        <time>2026-08-24T18:28:59+00:00</time>
      </trkpt>
      <trkpt lat="49.93679" lon="6.20109">
        <ele>343</ele>
        <time>2026-08-24T18:29:02+00:00</time>
      </trkpt>
      <trkpt lat="49.93665" lon="6.20089">
        <ele>344</ele>
        <time>2026-08-24T18:29:05+00:00</time>
      </trkpt>
      <trkpt lat="49.93665" lon="6.20096">
        <ele>337</ele>
        <time>2026-08-24T18:29:08+00:00</time>
      </trkpt>
      <trkpt lat="49.93671" lon="6.20118">
        <ele>341</ele>
        <time>2026-08-24T18:29:11+00:00</time>
      </trkpt>
      <trkpt lat="49.93671" lon="6.20122">
        <ele>340</ele>
        <time>2026-08-24T18:29:14+00:00</time>
      </trkpt>
      <trkpt lat="49.93649" lon="6.201">
        <ele>335</ele>
        <time>2026-08-24T18:29:17+00:00</time>
      </trkpt>
      <trkpt lat="49.93651" lon="6.20129">
        <ele>330</ele>
        <time>2026-08-24T18:29:20+00:00</time>
      </trkpt>
      <trkpt lat="49.93653" lon="6.20137">
        <ele>328</ele>
        <time>2026-08-24T18:29:23+00:00</time>
      </trkpt>
      <trkpt lat="49.93642" lon="6.20128">
        <ele>323</ele>
        <time>2026-08-24T18:29:26+00:00</time>
      </trkpt>
      <trkpt lat="49.93636" lon="6.20119">
        <ele>316</ele>
        <time>2026-08-24T18:29:29+00:00</time>
      </trkpt>
      <trkpt lat="49.93635" lon="6.20125">
        <ele>314</ele>
        <time>2026-08-24T18:29:32+00:00</time>
      </trkpt>
      <trkpt lat="49.93638" lon="6.20135">
        <ele>318</ele>
        <time>2026-08-24T18:29:35+00:00</time>
      </trkpt>
      <trkpt lat="49.9364" lon="6.20139">
        <ele>310</ele>
        <time>2026-08-24T18:29:38+00:00</time>
      </trkpt>
      <trkpt lat="49.93654" lon="6.20163">
        <ele>317</ele>
        <time>2026-08-24T18:29:41+00:00</time>
      </trkpt>
      <trkpt lat="49.93678" lon="6.2019">
        <ele>316</ele>
        <time>2026-08-24T18:29:44+00:00</time>
      </trkpt>
      <trkpt lat="49.93686" lon="6.20197">
        <ele>314</ele>
        <time>2026-08-24T18:29:47+00:00</time>
      </trkpt>
      <trkpt lat="49.93687" lon="6.20202">
        <ele>308</ele>
        <time>2026-08-24T18:29:50+00:00</time>
      </trkpt>
      <trkpt lat="49.93662" lon="6.20193">
        <ele>306</ele>
        <time>2026-08-24T18:29:53+00:00</time>
      </trkpt>
      <trkpt lat="49.93664" lon="6.20198">
        <ele>306</ele>
        <time>2026-08-24T18:29:56+00:00</time>
      </trkpt>
      <trkpt lat="49.93688" lon="6.20219">
        <ele>303</ele>
        <time>2026-08-24T18:29:59+00:00</time>
      </trkpt>
      <trkpt lat="49.93688" lon="6.20223">
        <ele>299</ele>
        <time>2026-08-24T18:30:02+00:00</time>
      </trkpt>
      <trkpt lat="49.93652" lon="6.20207">
        <ele>298</ele>
        <time>2026-08-24T18:30:05+00:00</time>
      </trkpt>
      <trkpt lat="49.93629" lon="6.20194">
        <ele>285</ele>
        <time>2026-08-24T18:30:08+00:00</time>
      </trkpt>
      <trkpt lat="49.93605" lon="6.20177">
        <ele>281</ele>
        <time>2026-08-24T18:30:11+00:00</time>
      </trkpt>
      <trkpt lat="49.93578" lon="6.20166">
        <ele>275</ele>
        <time>2026-08-24T18:30:14+00:00</time>
      </trkpt>
      <trkpt lat="49.93574" lon="6.20157">
        <ele>274</ele>
        <time>2026-08-24T18:30:17+00:00</time>
      </trkpt>
      <trkpt lat="49.93573" lon="6.20159">
        <ele>274</ele>
        <time>2026-08-24T18:30:20+00:00</time>
      </trkpt>
      <trkpt lat="49.93567" lon="6.20171">
        <ele>275</ele>
        <time>2026-08-24T18:30:23+00:00</time>
      </trkpt>
      <trkpt lat="49.93559" lon="6.2018">
        <ele>273</ele>
        <time>2026-08-24T18:30:26+00:00</time>
      </trkpt>
      <trkpt lat="49.93558" lon="6.20181">
        <ele>274</ele>
        <time>2026-08-24T18:30:29+00:00</time>
      </trkpt>
      <trkpt lat="49.93567" lon="6.2022">
        <ele>278</ele>
        <time>2026-08-24T18:30:32+00:00</time>
      </trkpt>
      <trkpt lat="49.93572" lon="6.2024">
        <ele>279</ele>
        <time>2026-08-24T18:30:35+00:00</time>
      </trkpt>
      <trkpt lat="49.93571" lon="6.20249">
        <ele>279</ele>
        <time>2026-08-24T18:30:38+00:00</time>
      </trkpt>
      <trkpt lat="49.93568" lon="6.20268">
        <ele>282</ele>
        <time>2026-08-24T18:30:41+00:00</time>
      </trkpt>
      <trkpt lat="49.93555" lon="6.20298">
        <ele>283</ele>
        <time>2026-08-24T18:30:44+00:00</time>
      </trkpt>
      <trkpt lat="49.9355" lon="6.20304">
        <ele>286</ele>
        <time>2026-08-24T18:30:47+00:00</time>
      </trkpt>
      <trkpt lat="49.93538" lon="6.20313">
        <ele>283</ele>
        <time>2026-08-24T18:30:50+00:00</time>
      </trkpt>
      <trkpt lat="49.93514" lon="6.2035">
        <ele>284</ele>
        <time>2026-08-24T18:30:53+00:00</time>
      </trkpt>
      <trkpt lat="49.93508" lon="6.20355">
        <ele>284</ele>
        <time>2026-08-24T18:30:56+00:00</time>
      </trkpt>
      <trkpt lat="49.93493" lon="6.20368">
        <ele>285</ele>
        <time>2026-08-24T18:30:59+00:00</time>
      </trkpt>
      <trkpt lat="49.93485" lon="6.2038">
        <ele>287</ele>
        <time>2026-08-24T18:31:02+00:00</time>
      </trkpt>
      <trkpt lat="49.93479" lon="6.20394">
        <ele>285</ele>
        <time>2026-08-24T18:31:05+00:00</time>
      </trkpt>
      <trkpt lat="49.93451" lon="6.20435">
        <ele>262</ele>
        <time>2026-08-24T18:31:08+00:00</time>
      </trkpt>
      <trkpt lat="49.93441" lon="6.20455">
        <ele>253</ele>
        <time>2026-08-24T18:31:11+00:00</time>
      </trkpt>
      <trkpt lat="49.93426" lon="6.20472">
        <ele>245</ele>
        <time>2026-08-24T18:31:14+00:00</time>
      </trkpt>
      <trkpt lat="49.93406" lon="6.20496">
        <ele>239</ele>
        <time>2026-08-24T18:31:17+00:00</time>
      </trkpt>
      <trkpt lat="49.93389" lon="6.20522">
        <ele>239</ele>
        <time>2026-08-24T18:31:20+00:00</time>
      </trkpt>
      <trkpt lat="49.93388" lon="6.20522">
        <ele>232</ele>
        <time>2026-08-24T18:31:23+00:00</time>
      </trkpt>
      <trkpt lat="49.93389" lon="6.20522">
        <ele>232</ele>
        <time>2026-08-24T18:31:26+00:00</time>
      </trkpt>
      <trkpt lat="49.93389" lon="6.20483">
        <ele>239</ele>
        <time>2026-08-24T18:31:29+00:00</time>
      </trkpt>
      <trkpt lat="49.93388" lon="6.20428">
        <ele>252</ele>
        <time>2026-08-24T18:31:32+00:00</time>
      </trkpt>
      <trkpt lat="49.93386" lon="6.2041">
        <ele>257</ele>
        <time>2026-08-24T18:31:35+00:00</time>
      </trkpt>
      <trkpt lat="49.93381" lon="6.20384">
        <ele>255</ele>
        <time>2026-08-24T18:31:38+00:00</time>
      </trkpt>
      <trkpt lat="49.93376" lon="6.20355">
        <ele>258</ele>
        <time>2026-08-24T18:31:41+00:00</time>
      </trkpt>
      <trkpt lat="49.93381" lon="6.20351">
        <ele>263</ele>
        <time>2026-08-24T18:31:44+00:00</time>
      </trkpt>
      <trkpt lat="49.93384" lon="6.20342">
        <ele>262</ele>
        <time>2026-08-24T18:31:47+00:00</time>
      </trkpt>
      <trkpt lat="49.93387" lon="6.2034">
        <ele>260</ele>
        <time>2026-08-24T18:31:50+00:00</time>
      </trkpt>
      <trkpt lat="49.93391" lon="6.2035">
        <ele>267</ele>
        <time>2026-08-24T18:31:53+00:00</time>
      </trkpt>
      <trkpt lat="49.93397" lon="6.20349">
        <ele>267</ele>
        <time>2026-08-24T18:31:56+00:00</time>
      </trkpt>
      <trkpt lat="49.93402" lon="6.20351">
        <ele>269</ele>
        <time>2026-08-24T18:31:59+00:00</time>
      </trkpt>
      <trkpt lat="49.93406" lon="6.20352">
        <ele>269</ele>
        <time>2026-08-24T18:32:02+00:00</time>
      </trkpt>
      <trkpt lat="49.9341" lon="6.20354">
        <ele>271</ele>
        <time>2026-08-24T18:32:05+00:00</time>
      </trkpt>
      <trkpt lat="49.93418" lon="6.20339">
        <ele>274</ele>
        <time>2026-08-24T18:32:08+00:00</time>
      </trkpt>
      <trkpt lat="49.93426" lon="6.20314">
        <ele>273</ele>
        <time>2026-08-24T18:32:11+00:00</time>
      </trkpt>
      <trkpt lat="49.93436" lon="6.20283">
        <ele>274</ele>
        <time>2026-08-24T18:32:14+00:00</time>
      </trkpt>
      <trkpt lat="49.93432" lon="6.20308">
        <ele>278</ele>
        <time>2026-08-24T18:32:17+00:00</time>
      </trkpt>
      <trkpt lat="49.93443" lon="6.2029">
        <ele>273</ele>
        <time>2026-08-24T18:32:20+00:00</time>
      </trkpt>
      <trkpt lat="49.93463" lon="6.20259">
        <ele>272</ele>
        <time>2026-08-24T18:32:23+00:00</time>
      </trkpt>
      <trkpt lat="49.93489" lon="6.20232">
        <ele>271</ele>
        <time>2026-08-24T18:32:26+00:00</time>
      </trkpt>
      <trkpt lat="49.93526" lon="6.202">
        <ele>272</ele>
        <time>2026-08-24T18:32:29+00:00</time>
      </trkpt>
      <trkpt lat="49.93529" lon="6.20197">
        <ele>270</ele>
        <time>2026-08-24T18:32:32+00:00</time>
      </trkpt>
      <trkpt lat="49.93558" lon="6.20181">
        <ele>274</ele>
        <time>2026-08-24T18:32:35+00:00</time>
      </trkpt>
      <trkpt lat="49.93567" lon="6.20171">
        <ele>275</ele>
        <time>2026-08-24T18:32:38+00:00</time>
      </trkpt>
      <trkpt lat="49.93573" lon="6.20159">
        <ele>274</ele>
        <time>2026-08-24T18:32:41+00:00</time>
      </trkpt>
      <trkpt lat="49.93574" lon="6.20157">
        <ele>274</ele>
        <time>2026-08-24T18:32:44+00:00</time>
      </trkpt>
      <trkpt lat="49.93573" lon="6.2015">
        <ele>272</ele>
        <time>2026-08-24T18:32:47+00:00</time>
      </trkpt>
      <trkpt lat="49.93572" lon="6.20147">
        <ele>272</ele>
        <time>2026-08-24T18:32:50+00:00</time>
      </trkpt>
      <trkpt lat="49.93572" lon="6.20114">
        <ele>269</ele>
        <time>2026-08-24T18:32:53+00:00</time>
      </trkpt>
      <trkpt lat="49.93573" lon="6.20071">
        <ele>269</ele>
        <time>2026-08-24T18:32:56+00:00</time>
      </trkpt>
      <trkpt lat="49.93569" lon="6.20049">
        <ele>268</ele>
        <time>2026-08-24T18:32:59+00:00</time>
      </trkpt>
      <trkpt lat="49.93562" lon="6.20032">
        <ele>269</ele>
        <time>2026-08-24T18:33:02+00:00</time>
      </trkpt>
      <trkpt lat="49.93554" lon="6.2004">
        <ele>273</ele>
        <time>2026-08-24T18:33:05+00:00</time>
      </trkpt>
      <trkpt lat="49.93543" lon="6.2005">
        <ele>268</ele>
        <time>2026-08-24T18:33:08+00:00</time>
      </trkpt>
      <trkpt lat="49.93538" lon="6.20061">
        <ele>267</ele>
        <time>2026-08-24T18:33:11+00:00</time>
      </trkpt>
      <trkpt lat="49.93535" lon="6.2006">
        <ele>273</ele>
        <time>2026-08-24T18:33:14+00:00</time>
      </trkpt>
      <trkpt lat="49.9351" lon="6.2008">
        <ele>267</ele>
        <time>2026-08-24T18:33:17+00:00</time>
      </trkpt>
      <trkpt lat="49.93487" lon="6.2009">
        <ele>263</ele>
        <time>2026-08-24T18:33:20+00:00</time>
      </trkpt>
      <trkpt lat="49.93486" lon="6.20093">
        <ele>260</ele>
        <time>2026-08-24T18:33:23+00:00</time>
      </trkpt>
      <trkpt lat="49.93485" lon="6.20096">
        <ele>260</ele>
        <time>2026-08-24T18:33:26+00:00</time>
      </trkpt>
      <trkpt lat="49.93484" lon="6.20099">
        <ele>260</ele>
        <time>2026-08-24T18:33:29+00:00</time>
      </trkpt>
      <trkpt lat="49.93482" lon="6.20104">
        <ele>257</ele>
        <time>2026-08-24T18:33:32+00:00</time>
      </trkpt>
      <trkpt lat="49.93482" lon="6.20104">
        <ele>257</ele>
        <time>2026-08-24T18:33:35+00:00</time>
      </trkpt>
      <trkpt lat="49.93479" lon="6.20102">
        <ele>258</ele>
        <time>2026-08-24T18:33:38+00:00</time>
      </trkpt>
      <trkpt lat="49.93476" lon="6.201">
        <ele>260</ele>
        <time>2026-08-24T18:33:41+00:00</time>
      </trkpt>
      <trkpt lat="49.93471" lon="6.20097">
        <ele>265</ele>
        <time>2026-08-24T18:33:44+00:00</time>
      </trkpt>
      <trkpt lat="49.93469" lon="6.20097">
        <ele>262</ele>
        <time>2026-08-24T18:33:47+00:00</time>
      </trkpt>
      <trkpt lat="49.93458" lon="6.20095">
        <ele>264</ele>
        <time>2026-08-24T18:33:50+00:00</time>
      </trkpt>
      <trkpt lat="49.93448" lon="6.20097">
        <ele>268</ele>
        <time>2026-08-24T18:33:53+00:00</time>
      </trkpt>
      <trkpt lat="49.93406" lon="6.20111">
        <ele>269</ele>
        <time>2026-08-24T18:33:56+00:00</time>
      </trkpt>
      <trkpt lat="49.93406" lon="6.20113">
        <ele>269</ele>
        <time>2026-08-24T18:33:59+00:00</time>
      </trkpt>
      <trkpt lat="49.93397" lon="6.20121">
        <ele>265</ele>
        <time>2026-08-24T18:34:02+00:00</time>
      </trkpt>
      <trkpt lat="49.93396" lon="6.20118">
        <ele>275</ele>
        <time>2026-08-24T18:34:05+00:00</time>
      </trkpt>
      <trkpt lat="49.93393" lon="6.20117">
        <ele>275</ele>
        <time>2026-08-24T18:34:08+00:00</time>
      </trkpt>
      <trkpt lat="49.93392" lon="6.2012">
        <ele>271</ele>
        <time>2026-08-24T18:34:11+00:00</time>
      </trkpt>
      <trkpt lat="49.93384" lon="6.20129">
        <ele>272</ele>
        <time>2026-08-24T18:34:14+00:00</time>
      </trkpt>
      <trkpt lat="49.93375" lon="6.20136">
        <ele>268</ele>
        <time>2026-08-24T18:34:17+00:00</time>
      </trkpt>
      <trkpt lat="49.93371" lon="6.20143">
        <ele>269</ele>
        <time>2026-08-24T18:34:20+00:00</time>
      </trkpt>
      <trkpt lat="49.93369" lon="6.20144">
        <ele>274</ele>
        <time>2026-08-24T18:34:23+00:00</time>
      </trkpt>
      <trkpt lat="49.93366" lon="6.20152">
        <ele>270</ele>
        <time>2026-08-24T18:34:26+00:00</time>
      </trkpt>
      <trkpt lat="49.93351" lon="6.20175">
        <ele>266</ele>
        <time>2026-08-24T18:34:29+00:00</time>
      </trkpt>
      <trkpt lat="49.93332" lon="6.20211">
        <ele>257</ele>
        <time>2026-08-24T18:34:32+00:00</time>
      </trkpt>
      <trkpt lat="49.93328" lon="6.20214">
        <ele>261</ele>
        <time>2026-08-24T18:34:35+00:00</time>
      </trkpt>
      <trkpt lat="49.93327" lon="6.20221">
        <ele>256</ele>
        <time>2026-08-24T18:34:38+00:00</time>
      </trkpt>
      <trkpt lat="49.93324" lon="6.20227">
        <ele>256</ele>
        <time>2026-08-24T18:34:41+00:00</time>
      </trkpt>
      <trkpt lat="49.9332" lon="6.20235">
        <ele>252</ele>
        <time>2026-08-24T18:34:44+00:00</time>
      </trkpt>
      <trkpt lat="49.93319" lon="6.20243">
        <ele>251</ele>
        <time>2026-08-24T18:34:47+00:00</time>
      </trkpt>
      <trkpt lat="49.93316" lon="6.2025">
        <ele>251</ele>
        <time>2026-08-24T18:34:50+00:00</time>
      </trkpt>
      <trkpt lat="49.93313" lon="6.20253">
        <ele>250</ele>
        <time>2026-08-24T18:34:53+00:00</time>
      </trkpt>
      <trkpt lat="49.93312" lon="6.2026">
        <ele>250</ele>
        <time>2026-08-24T18:34:56+00:00</time>
      </trkpt>
      <trkpt lat="49.93302" lon="6.20287">
        <ele>250</ele>
        <time>2026-08-24T18:34:59+00:00</time>
      </trkpt>
      <trkpt lat="49.93298" lon="6.20291">
        <ele>255</ele>
        <time>2026-08-24T18:35:02+00:00</time>
      </trkpt>
      <trkpt lat="49.93298" lon="6.20299">
        <ele>255</ele>
        <time>2026-08-24T18:35:05+00:00</time>
      </trkpt>
      <trkpt lat="49.93293" lon="6.20313">
        <ele>250</ele>
        <time>2026-08-24T18:35:08+00:00</time>
      </trkpt>
      <trkpt lat="49.9328" lon="6.20304">
        <ele>261</ele>
        <time>2026-08-24T18:35:11+00:00</time>
      </trkpt>
      <trkpt lat="49.93283" lon="6.20308">
        <ele>243</ele>
        <time>2026-08-24T18:35:14+00:00</time>
      </trkpt>
      <trkpt lat="49.93287" lon="6.20318">
        <ele>255</ele>
        <time>2026-08-24T18:35:17+00:00</time>
      </trkpt>
      <trkpt lat="49.93301" lon="6.20332">
        <ele>236</ele>
        <time>2026-08-24T18:35:20+00:00</time>
      </trkpt>
      <trkpt lat="49.93311" lon="6.20338">
        <ele>235</ele>
        <time>2026-08-24T18:35:23+00:00</time>
      </trkpt>
      <trkpt lat="49.93317" lon="6.20342">
        <ele>232</ele>
        <time>2026-08-24T18:35:26+00:00</time>
      </trkpt>
      <trkpt lat="49.9332" lon="6.20339">
        <ele>235</ele>
        <time>2026-08-24T18:35:29+00:00</time>
      </trkpt>
      <trkpt lat="49.93327" lon="6.2034">
        <ele>234</ele>
        <time>2026-08-24T18:35:32+00:00</time>
      </trkpt>
      <trkpt lat="49.93326" lon="6.20371">
        <ele>231</ele>
        <time>2026-08-24T18:35:35+00:00</time>
      </trkpt>
      <trkpt lat="49.93327" lon="6.20379">
        <ele>231</ele>
        <time>2026-08-24T18:35:38+00:00</time>
      </trkpt>
      <trkpt lat="49.93329" lon="6.20392">
        <ele>230</ele>
        <time>2026-08-24T18:35:41+00:00</time>
      </trkpt>
      <trkpt lat="49.93337" lon="6.20434">
        <ele>230</ele>
        <time>2026-08-24T18:35:44+00:00</time>
      </trkpt>
      <trkpt lat="49.9334" lon="6.20435">
        <ele>230</ele>
        <time>2026-08-24T18:35:47+00:00</time>
      </trkpt>
      <trkpt lat="49.9334" lon="6.20446">
        <ele>231</ele>
        <time>2026-08-24T18:35:50+00:00</time>
      </trkpt>
      <trkpt lat="49.93339" lon="6.20475">
        <ele>230</ele>
        <time>2026-08-24T18:35:53+00:00</time>
      </trkpt>
      <trkpt lat="49.93337" lon="6.2051">
        <ele>224</ele>
        <time>2026-08-24T18:35:56+00:00</time>
      </trkpt>
      <trkpt lat="49.93336" lon="6.20549">
        <ele>223</ele>
        <time>2026-08-24T18:35:59+00:00</time>
      </trkpt>
      <trkpt lat="49.93336" lon="6.20563">
        <ele>223</ele>
        <time>2026-08-24T18:36:02+00:00</time>
      </trkpt>
      <trkpt lat="49.93335" lon="6.20582">
        <ele>221</ele>
        <time>2026-08-24T18:36:05+00:00</time>
      </trkpt>
      <trkpt lat="49.93317" lon="6.2058">
        <ele>221</ele>
        <time>2026-08-24T18:36:08+00:00</time>
      </trkpt>
      <trkpt lat="49.93307" lon="6.2059">
        <ele>221</ele>
        <time>2026-08-24T18:36:11+00:00</time>
      </trkpt>
      <trkpt lat="49.93308" lon="6.2061">
        <ele>219</ele>
        <time>2026-08-24T18:36:14+00:00</time>
      </trkpt>
      <trkpt lat="49.93318" lon="6.20612">
        <ele>216</ele>
        <time>2026-08-24T18:36:17+00:00</time>
      </trkpt>
    </trkseg>
  </trk>
</gpx>
